<?xml version="1.0" encoding="UTF-8" standalone="no" ?>
<gpx xmlns="http://www.topografix.com/GPX/1/1" xmlns:xsi="http://www.w3.org/2001/XMLSchema-instance" xsi:schemaLocation="http://www.topografix.com/GPX/1/1 http://www.topografix.com/GPX/1/1/gpx.xsd" version="1.1" creator="VisuGPX - https://www.visugpx.com">
  <metadata>
    <name>Nimes Le Vieux - Causse Méjean</name>
    <desc><![CDATA[Terre de contraste - Chaos dolomitique et collines douces donnant sur le Massif de l\'Aigoual]]></desc>
  </metadata>
  <trk>
    <name><![CDATA[NimesLeVieux]]></name>
    <trkseg>
      <trkpt lat="44.22331" lon="3.49769">
        <ele>1084.023926</ele>
        <time>2013-11-03T09:40:23Z</time>
      </trkpt>
      <trkpt lat="44.22329" lon="3.49765">
        <ele>1084.023926</ele>
        <time>2013-11-03T09:40:24Z</time>
      </trkpt>
      <trkpt lat="44.22322" lon="3.49753">
        <ele>1082.101074</ele>
        <time>2013-11-03T09:40:28Z</time>
      </trkpt>
      <trkpt lat="44.2232" lon="3.49746">
        <ele>1078.736572</ele>
        <time>2013-11-03T09:40:37Z</time>
      </trkpt>
      <trkpt lat="44.2232" lon="3.49747">
        <ele>1082.581787</ele>
        <time>2013-11-03T09:40:44Z</time>
      </trkpt>
      <trkpt lat="44.22341" lon="3.49771">
        <ele>1082.101074</ele>
        <time>2013-11-03T09:40:56Z</time>
      </trkpt>
      <trkpt lat="44.22342" lon="3.49773">
        <ele>1082.101074</ele>
        <time>2013-11-03T09:40:57Z</time>
      </trkpt>
      <trkpt lat="44.22343" lon="3.49773">
        <ele>1083.542969</ele>
        <time>2013-11-03T09:41:01Z</time>
      </trkpt>
      <trkpt lat="44.22336" lon="3.4977">
        <ele>1086.907715</ele>
        <time>2013-11-03T09:41:09Z</time>
      </trkpt>
      <trkpt lat="44.22335" lon="3.4977">
        <ele>1087.388428</ele>
        <time>2013-11-03T09:41:10Z</time>
      </trkpt>
      <trkpt lat="44.22334" lon="3.49772">
        <ele>1086.427246</ele>
        <time>2013-11-03T09:41:11Z</time>
      </trkpt>
      <trkpt lat="44.22327" lon="3.49772">
        <ele>1086.907715</ele>
        <time>2013-11-03T09:41:15Z</time>
      </trkpt>
      <trkpt lat="44.22304" lon="3.4978">
        <ele>1083.542969</ele>
        <time>2013-11-03T09:41:32Z</time>
      </trkpt>
      <trkpt lat="44.22303" lon="3.4978">
        <ele>1086.907715</ele>
        <time>2013-11-03T09:41:33Z</time>
      </trkpt>
      <trkpt lat="44.22302" lon="3.49785">
        <ele>1088.349854</ele>
        <time>2013-11-03T09:41:37Z</time>
      </trkpt>
      <trkpt lat="44.22301" lon="3.49787">
        <ele>1084.504639</ele>
        <time>2013-11-03T09:41:39Z</time>
      </trkpt>
      <trkpt lat="44.223" lon="3.49801">
        <ele>1088.349854</ele>
        <time>2013-11-03T09:41:47Z</time>
      </trkpt>
      <trkpt lat="44.223" lon="3.49806">
        <ele>1089.791748</ele>
        <time>2013-11-03T09:41:50Z</time>
      </trkpt>
      <trkpt lat="44.22296" lon="3.49824">
        <ele>1089.791748</ele>
        <time>2013-11-03T09:42:04Z</time>
      </trkpt>
      <trkpt lat="44.22296" lon="3.49826">
        <ele>1091.233643</ele>
        <time>2013-11-03T09:42:05Z</time>
      </trkpt>
      <trkpt lat="44.22298" lon="3.49829">
        <ele>1089.311035</ele>
        <time>2013-11-03T09:42:07Z</time>
      </trkpt>
      <trkpt lat="44.22298" lon="3.49832">
        <ele>1085.46582</ele>
        <time>2013-11-03T09:42:09Z</time>
      </trkpt>
      <trkpt lat="44.22298" lon="3.49833">
        <ele>1085.46582</ele>
        <time>2013-11-03T09:42:10Z</time>
      </trkpt>
      <trkpt lat="44.223" lon="3.49845">
        <ele>1084.985352</ele>
        <time>2013-11-03T09:42:20Z</time>
      </trkpt>
      <trkpt lat="44.223" lon="3.49849">
        <ele>1083.542969</ele>
        <time>2013-11-03T09:42:24Z</time>
      </trkpt>
      <trkpt lat="44.22307" lon="3.49873">
        <ele>1083.542969</ele>
        <time>2013-11-03T09:42:34Z</time>
      </trkpt>
      <trkpt lat="44.22306" lon="3.49874">
        <ele>1083.062256</ele>
        <time>2013-11-03T09:42:35Z</time>
      </trkpt>
      <trkpt lat="44.22304" lon="3.49879">
        <ele>1083.062256</ele>
        <time>2013-11-03T09:42:39Z</time>
      </trkpt>
      <trkpt lat="44.22306" lon="3.49882">
        <ele>1084.504639</ele>
        <time>2013-11-03T09:42:43Z</time>
      </trkpt>
      <trkpt lat="44.22308" lon="3.49906">
        <ele>1083.542969</ele>
        <time>2013-11-03T09:42:58Z</time>
      </trkpt>
      <trkpt lat="44.22308" lon="3.49913">
        <ele>1083.542969</ele>
        <time>2013-11-03T09:43:02Z</time>
      </trkpt>
      <trkpt lat="44.22323" lon="3.49935">
        <ele>1084.985352</ele>
        <time>2013-11-03T09:43:15Z</time>
      </trkpt>
      <trkpt lat="44.22325" lon="3.49939">
        <ele>1083.542969</ele>
        <time>2013-11-03T09:43:19Z</time>
      </trkpt>
      <trkpt lat="44.22327" lon="3.49948">
        <ele>1083.542969</ele>
        <time>2013-11-03T09:43:28Z</time>
      </trkpt>
      <trkpt lat="44.22324" lon="3.49938">
        <ele>1084.985352</ele>
        <time>2013-11-03T09:43:37Z</time>
      </trkpt>
      <trkpt lat="44.22332" lon="3.4996">
        <ele>1085.946533</ele>
        <time>2013-11-03T09:43:53Z</time>
      </trkpt>
      <trkpt lat="44.22327" lon="3.49951">
        <ele>1085.46582</ele>
        <time>2013-11-03T09:43:57Z</time>
      </trkpt>
      <trkpt lat="44.22315" lon="3.49934">
        <ele>1080.65918</ele>
        <time>2013-11-03T09:44:04Z</time>
      </trkpt>
      <trkpt lat="44.22312" lon="3.4993">
        <ele>1085.46582</ele>
        <time>2013-11-03T09:44:05Z</time>
      </trkpt>
      <trkpt lat="44.22311" lon="3.4993">
        <ele>1082.581787</ele>
        <time>2013-11-03T09:44:06Z</time>
      </trkpt>
      <trkpt lat="44.22307" lon="3.49933">
        <ele>1082.581787</ele>
        <time>2013-11-03T09:44:10Z</time>
      </trkpt>
      <trkpt lat="44.22304" lon="3.49943">
        <ele>1083.542969</ele>
        <time>2013-11-03T09:44:20Z</time>
      </trkpt>
      <trkpt lat="44.223" lon="3.49951">
        <ele>1084.023926</ele>
        <time>2013-11-03T09:44:27Z</time>
      </trkpt>
      <trkpt lat="44.22294" lon="3.49955">
        <ele>1084.504639</ele>
        <time>2013-11-03T09:44:33Z</time>
      </trkpt>
      <trkpt lat="44.22286" lon="3.4996">
        <ele>1085.46582</ele>
        <time>2013-11-03T09:44:40Z</time>
      </trkpt>
      <trkpt lat="44.2229" lon="3.49967">
        <ele>1084.985352</ele>
        <time>2013-11-03T09:44:42Z</time>
      </trkpt>
      <trkpt lat="44.22297" lon="3.49977">
        <ele>1085.946533</ele>
        <time>2013-11-03T09:44:46Z</time>
      </trkpt>
      <trkpt lat="44.22304" lon="3.49992">
        <ele>1087.388428</ele>
        <time>2013-11-03T09:44:56Z</time>
      </trkpt>
      <trkpt lat="44.22303" lon="3.49996">
        <ele>1089.311035</ele>
        <time>2013-11-03T09:44:59Z</time>
      </trkpt>
      <trkpt lat="44.22298" lon="3.50011">
        <ele>1091.714355</ele>
        <time>2013-11-03T09:45:10Z</time>
      </trkpt>
      <trkpt lat="44.22298" lon="3.50015">
        <ele>1091.714355</ele>
        <time>2013-11-03T09:45:13Z</time>
      </trkpt>
      <trkpt lat="44.22301" lon="3.50027">
        <ele>1091.714355</ele>
        <time>2013-11-03T09:45:23Z</time>
      </trkpt>
      <trkpt lat="44.22303" lon="3.50036">
        <ele>1091.714355</ele>
        <time>2013-11-03T09:45:38Z</time>
      </trkpt>
      <trkpt lat="44.22305" lon="3.5004">
        <ele>1091.714355</ele>
        <time>2013-11-03T09:45:40Z</time>
      </trkpt>
      <trkpt lat="44.22293" lon="3.5004">
        <ele>1092.195068</ele>
        <time>2013-11-03T09:45:47Z</time>
      </trkpt>
      <trkpt lat="44.22288" lon="3.50044">
        <ele>1091.233643</ele>
        <time>2013-11-03T09:45:51Z</time>
      </trkpt>
      <trkpt lat="44.22289" lon="3.50053">
        <ele>1092.675781</ele>
        <time>2013-11-03T09:45:57Z</time>
      </trkpt>
      <trkpt lat="44.2229" lon="3.50066">
        <ele>1093.636963</ele>
        <time>2013-11-03T09:46:04Z</time>
      </trkpt>
      <trkpt lat="44.22291" lon="3.50083">
        <ele>1093.636963</ele>
        <time>2013-11-03T09:46:13Z</time>
      </trkpt>
      <trkpt lat="44.22287" lon="3.50089">
        <ele>1093.636963</ele>
        <time>2013-11-03T09:46:18Z</time>
      </trkpt>
      <trkpt lat="44.22284" lon="3.501">
        <ele>1092.675781</ele>
        <time>2013-11-03T09:46:25Z</time>
      </trkpt>
      <trkpt lat="44.22286" lon="3.50116">
        <ele>1092.195068</ele>
        <time>2013-11-03T09:46:33Z</time>
      </trkpt>
      <trkpt lat="44.22279" lon="3.50118">
        <ele>1092.195068</ele>
        <time>2013-11-03T09:46:41Z</time>
      </trkpt>
      <trkpt lat="44.2228" lon="3.5012">
        <ele>1091.233643</ele>
        <time>2013-11-03T09:46:42Z</time>
      </trkpt>
      <trkpt lat="44.22281" lon="3.50127">
        <ele>1091.233643</ele>
        <time>2013-11-03T09:46:45Z</time>
      </trkpt>
      <trkpt lat="44.22286" lon="3.5014">
        <ele>1092.195068</ele>
        <time>2013-11-03T09:46:58Z</time>
      </trkpt>
      <trkpt lat="44.22286" lon="3.50142">
        <ele>1088.349854</ele>
        <time>2013-11-03T09:47:03Z</time>
      </trkpt>
      <trkpt lat="44.22286" lon="3.50143">
        <ele>1091.233643</ele>
        <time>2013-11-03T09:47:04Z</time>
      </trkpt>
      <trkpt lat="44.22283" lon="3.50138">
        <ele>1092.195068</ele>
        <time>2013-11-03T09:47:09Z</time>
      </trkpt>
      <trkpt lat="44.22284" lon="3.50143">
        <ele>1093.15625</ele>
        <time>2013-11-03T09:47:47Z</time>
      </trkpt>
      <trkpt lat="44.22287" lon="3.50146">
        <ele>1092.195068</ele>
        <time>2013-11-03T09:47:49Z</time>
      </trkpt>
      <trkpt lat="44.22295" lon="3.50157">
        <ele>1092.195068</ele>
        <time>2013-11-03T09:47:55Z</time>
      </trkpt>
      <trkpt lat="44.22301" lon="3.5017">
        <ele>1090.75293</ele>
        <time>2013-11-03T09:48:04Z</time>
      </trkpt>
      <trkpt lat="44.2229" lon="3.50182">
        <ele>1088.349854</ele>
        <time>2013-11-03T09:48:15Z</time>
      </trkpt>
      <trkpt lat="44.22277" lon="3.50177">
        <ele>1085.946533</ele>
        <time>2013-11-03T09:48:27Z</time>
      </trkpt>
      <trkpt lat="44.22278" lon="3.50181">
        <ele>1086.907715</ele>
        <time>2013-11-03T09:48:32Z</time>
      </trkpt>
      <trkpt lat="44.22277" lon="3.50184">
        <ele>1089.311035</ele>
        <time>2013-11-03T09:48:34Z</time>
      </trkpt>
      <trkpt lat="44.22274" lon="3.50184">
        <ele>1087.388428</ele>
        <time>2013-11-03T09:48:36Z</time>
      </trkpt>
      <trkpt lat="44.22272" lon="3.50202">
        <ele>1085.946533</ele>
        <time>2013-11-03T09:48:46Z</time>
      </trkpt>
      <trkpt lat="44.22265" lon="3.50205">
        <ele>1082.581787</ele>
        <time>2013-11-03T09:48:52Z</time>
      </trkpt>
      <trkpt lat="44.22259" lon="3.50204">
        <ele>1080.178467</ele>
        <time>2013-11-03T09:48:59Z</time>
      </trkpt>
      <trkpt lat="44.2226" lon="3.50211">
        <ele>1078.736572</ele>
        <time>2013-11-03T09:49:06Z</time>
      </trkpt>
      <trkpt lat="44.22256" lon="3.50221">
        <ele>1078.736572</ele>
        <time>2013-11-03T09:49:13Z</time>
      </trkpt>
      <trkpt lat="44.22255" lon="3.50232">
        <ele>1079.217041</ele>
        <time>2013-11-03T09:49:21Z</time>
      </trkpt>
      <trkpt lat="44.22259" lon="3.50248">
        <ele>1079.697754</ele>
        <time>2013-11-03T09:49:32Z</time>
      </trkpt>
      <trkpt lat="44.22258" lon="3.50252">
        <ele>1079.697754</ele>
        <time>2013-11-03T09:49:47Z</time>
      </trkpt>
      <trkpt lat="44.22254" lon="3.50262">
        <ele>1081.620361</ele>
        <time>2013-11-03T09:49:58Z</time>
      </trkpt>
      <trkpt lat="44.22257" lon="3.50269">
        <ele>1080.65918</ele>
        <time>2013-11-03T09:50:01Z</time>
      </trkpt>
      <trkpt lat="44.22257" lon="3.50276">
        <ele>1081.139893</ele>
        <time>2013-11-03T09:50:05Z</time>
      </trkpt>
      <trkpt lat="44.22269" lon="3.50296">
        <ele>1084.023926</ele>
        <time>2013-11-03T09:50:21Z</time>
      </trkpt>
      <trkpt lat="44.2227" lon="3.50299">
        <ele>1085.46582</ele>
        <time>2013-11-03T09:50:23Z</time>
      </trkpt>
      <trkpt lat="44.22279" lon="3.50312">
        <ele>1090.272461</ele>
        <time>2013-11-03T09:50:34Z</time>
      </trkpt>
      <trkpt lat="44.22279" lon="3.50312">
        <ele>1090.272461</ele>
        <time>2013-11-03T09:50:35Z</time>
      </trkpt>
      <trkpt lat="44.22275" lon="3.50318">
        <ele>1091.714355</ele>
        <time>2013-11-03T09:50:47Z</time>
      </trkpt>
      <trkpt lat="44.22271" lon="3.50328">
        <ele>1093.15625</ele>
        <time>2013-11-03T09:50:56Z</time>
      </trkpt>
      <trkpt lat="44.22271" lon="3.50332">
        <ele>1092.675781</ele>
        <time>2013-11-03T09:50:58Z</time>
      </trkpt>
      <trkpt lat="44.2226" lon="3.50344">
        <ele>1093.636963</ele>
        <time>2013-11-03T09:51:11Z</time>
      </trkpt>
      <trkpt lat="44.22265" lon="3.50357">
        <ele>1094.598145</ele>
        <time>2013-11-03T09:51:19Z</time>
      </trkpt>
      <trkpt lat="44.22268" lon="3.50368">
        <ele>1094.598145</ele>
        <time>2013-11-03T09:51:23Z</time>
      </trkpt>
      <trkpt lat="44.22278" lon="3.5038">
        <ele>1095.55957</ele>
        <time>2013-11-03T09:51:34Z</time>
      </trkpt>
      <trkpt lat="44.22286" lon="3.50381">
        <ele>1098.924072</ele>
        <time>2013-11-03T09:51:46Z</time>
      </trkpt>
      <trkpt lat="44.22294" lon="3.50377">
        <ele>1099.885498</ele>
        <time>2013-11-03T09:51:53Z</time>
      </trkpt>
      <trkpt lat="44.22305" lon="3.50385">
        <ele>1100.366455</ele>
        <time>2013-11-03T09:52:03Z</time>
      </trkpt>
      <trkpt lat="44.22306" lon="3.50386">
        <ele>1101.80835</ele>
        <time>2013-11-03T09:52:05Z</time>
      </trkpt>
      <trkpt lat="44.22311" lon="3.504">
        <ele>1104.21167</ele>
        <time>2013-11-03T09:52:15Z</time>
      </trkpt>
      <trkpt lat="44.22313" lon="3.50403">
        <ele>1104.692139</ele>
        <time>2013-11-03T09:52:20Z</time>
      </trkpt>
      <trkpt lat="44.22316" lon="3.50405">
        <ele>1106.614746</ele>
        <time>2013-11-03T09:52:24Z</time>
      </trkpt>
      <trkpt lat="44.22317" lon="3.50401">
        <ele>1107.095459</ele>
        <time>2013-11-03T09:52:28Z</time>
      </trkpt>
      <trkpt lat="44.22321" lon="3.50403">
        <ele>1108.537354</ele>
        <time>2013-11-03T09:52:39Z</time>
      </trkpt>
      <trkpt lat="44.2232" lon="3.50407">
        <ele>1109.018066</ele>
        <time>2013-11-03T09:52:51Z</time>
      </trkpt>
      <trkpt lat="44.2232" lon="3.5041">
        <ele>1110.459961</ele>
        <time>2013-11-03T09:52:55Z</time>
      </trkpt>
      <trkpt lat="44.22322" lon="3.50424">
        <ele>1109.979248</ele>
        <time>2013-11-03T09:53:04Z</time>
      </trkpt>
      <trkpt lat="44.22325" lon="3.50429">
        <ele>1111.421387</ele>
        <time>2013-11-03T09:53:10Z</time>
      </trkpt>
      <trkpt lat="44.22318" lon="3.50435">
        <ele>1112.382568</ele>
        <time>2013-11-03T09:53:17Z</time>
      </trkpt>
      <trkpt lat="44.22317" lon="3.5044">
        <ele>1114.785889</ele>
        <time>2013-11-03T09:53:21Z</time>
      </trkpt>
      <trkpt lat="44.22313" lon="3.50446">
        <ele>1116.70874</ele>
        <time>2013-11-03T09:53:27Z</time>
      </trkpt>
      <trkpt lat="44.22311" lon="3.50457">
        <ele>1114.785889</ele>
        <time>2013-11-03T09:53:40Z</time>
      </trkpt>
      <trkpt lat="44.22308" lon="3.50462">
        <ele>1115.266602</ele>
        <time>2013-11-03T09:53:58Z</time>
      </trkpt>
      <trkpt lat="44.22304" lon="3.50467">
        <ele>1115.266602</ele>
        <time>2013-11-03T09:54:18Z</time>
      </trkpt>
      <trkpt lat="44.22303" lon="3.50472">
        <ele>1115.747314</ele>
        <time>2013-11-03T09:55:20Z</time>
      </trkpt>
      <trkpt lat="44.22304" lon="3.50471">
        <ele>1118.150635</ele>
        <time>2013-11-03T09:55:48Z</time>
      </trkpt>
      <trkpt lat="44.22304" lon="3.50471">
        <ele>1117.669922</ele>
        <time>2013-11-03T09:56:28Z</time>
      </trkpt>
      <trkpt lat="44.22303" lon="3.50471">
        <ele>1118.631348</ele>
        <time>2013-11-03T09:56:48Z</time>
      </trkpt>
      <trkpt lat="44.223" lon="3.50476">
        <ele>1116.228027</ele>
        <time>2013-11-03T09:57:01Z</time>
      </trkpt>
      <trkpt lat="44.22299" lon="3.50475">
        <ele>1116.228027</ele>
        <time>2013-11-03T09:57:02Z</time>
      </trkpt>
      <trkpt lat="44.22296" lon="3.50473">
        <ele>1115.747314</ele>
        <time>2013-11-03T09:57:04Z</time>
      </trkpt>
      <trkpt lat="44.22287" lon="3.50471">
        <ele>1113.824463</ele>
        <time>2013-11-03T09:57:15Z</time>
      </trkpt>
      <trkpt lat="44.22282" lon="3.50471">
        <ele>1110.940674</ele>
        <time>2013-11-03T09:57:24Z</time>
      </trkpt>
      <trkpt lat="44.22281" lon="3.50471">
        <ele>1110.940674</ele>
        <time>2013-11-03T09:57:25Z</time>
      </trkpt>
      <trkpt lat="44.22278" lon="3.50466">
        <ele>1109.498779</ele>
        <time>2013-11-03T09:57:30Z</time>
      </trkpt>
      <trkpt lat="44.22267" lon="3.50469">
        <ele>1107.576172</ele>
        <time>2013-11-03T09:57:42Z</time>
      </trkpt>
      <trkpt lat="44.22266" lon="3.5047">
        <ele>1107.095459</ele>
        <time>2013-11-03T09:57:44Z</time>
      </trkpt>
      <trkpt lat="44.22263" lon="3.50476">
        <ele>1106.134033</ele>
        <time>2013-11-03T09:57:58Z</time>
      </trkpt>
      <trkpt lat="44.22261" lon="3.50479">
        <ele>1106.134033</ele>
        <time>2013-11-03T09:58:04Z</time>
      </trkpt>
      <trkpt lat="44.22256" lon="3.50496">
        <ele>1105.653564</ele>
        <time>2013-11-03T09:58:17Z</time>
      </trkpt>
      <trkpt lat="44.22254" lon="3.50505">
        <ele>1106.134033</ele>
        <time>2013-11-03T09:58:37Z</time>
      </trkpt>
      <trkpt lat="44.22255" lon="3.50509">
        <ele>1104.692139</ele>
        <time>2013-11-03T09:58:59Z</time>
      </trkpt>
      <trkpt lat="44.22253" lon="3.50509">
        <ele>1104.692139</ele>
        <time>2013-11-03T09:59:08Z</time>
      </trkpt>
      <trkpt lat="44.22246" lon="3.5051">
        <ele>1104.21167</ele>
        <time>2013-11-03T09:59:13Z</time>
      </trkpt>
      <trkpt lat="44.22248" lon="3.50526">
        <ele>1103.250244</ele>
        <time>2013-11-03T09:59:22Z</time>
      </trkpt>
      <trkpt lat="44.22251" lon="3.5053">
        <ele>1103.730957</ele>
        <time>2013-11-03T09:59:25Z</time>
      </trkpt>
      <trkpt lat="44.22265" lon="3.50537">
        <ele>1103.250244</ele>
        <time>2013-11-03T09:59:36Z</time>
      </trkpt>
      <trkpt lat="44.22269" lon="3.50543">
        <ele>1103.730957</ele>
        <time>2013-11-03T09:59:50Z</time>
      </trkpt>
      <trkpt lat="44.22269" lon="3.5055">
        <ele>1104.21167</ele>
        <time>2013-11-03T09:59:56Z</time>
      </trkpt>
      <trkpt lat="44.22269" lon="3.50564">
        <ele>1106.134033</ele>
        <time>2013-11-03T10:00:07Z</time>
      </trkpt>
      <trkpt lat="44.22267" lon="3.5057">
        <ele>1108.056885</ele>
        <time>2013-11-03T10:00:18Z</time>
      </trkpt>
      <trkpt lat="44.2227" lon="3.50575">
        <ele>1109.979248</ele>
        <time>2013-11-03T10:00:33Z</time>
      </trkpt>
      <trkpt lat="44.22276" lon="3.50579">
        <ele>1110.459961</ele>
        <time>2013-11-03T10:00:45Z</time>
      </trkpt>
      <trkpt lat="44.22274" lon="3.50579">
        <ele>1106.614746</ele>
        <time>2013-11-03T10:00:50Z</time>
      </trkpt>
      <trkpt lat="44.22274" lon="3.50578">
        <ele>1107.576172</ele>
        <time>2013-11-03T10:00:51Z</time>
      </trkpt>
      <trkpt lat="44.22272" lon="3.50579">
        <ele>1110.940674</ele>
        <time>2013-11-03T10:01:17Z</time>
      </trkpt>
      <trkpt lat="44.22267" lon="3.50581">
        <ele>1111.9021</ele>
        <time>2013-11-03T10:01:29Z</time>
      </trkpt>
      <trkpt lat="44.22268" lon="3.50582">
        <ele>1113.343994</ele>
        <time>2013-11-03T10:01:44Z</time>
      </trkpt>
      <trkpt lat="44.22269" lon="3.50584">
        <ele>1113.824463</ele>
        <time>2013-11-03T10:02:08Z</time>
      </trkpt>
      <trkpt lat="44.22272" lon="3.50587">
        <ele>1114.785889</ele>
        <time>2013-11-03T10:02:49Z</time>
      </trkpt>
      <trkpt lat="44.22271" lon="3.50585">
        <ele>1114.305176</ele>
        <time>2013-11-03T10:03:16Z</time>
      </trkpt>
      <trkpt lat="44.22271" lon="3.50582">
        <ele>1113.343994</ele>
        <time>2013-11-03T10:03:24Z</time>
      </trkpt>
      <trkpt lat="44.22271" lon="3.50579">
        <ele>1110.940674</ele>
        <time>2013-11-03T10:03:29Z</time>
      </trkpt>
      <trkpt lat="44.22277" lon="3.50581">
        <ele>1110.459961</ele>
        <time>2013-11-03T10:03:33Z</time>
      </trkpt>
      <trkpt lat="44.22283" lon="3.5059">
        <ele>1111.9021</ele>
        <time>2013-11-03T10:03:42Z</time>
      </trkpt>
      <trkpt lat="44.22287" lon="3.5059">
        <ele>1109.979248</ele>
        <time>2013-11-03T10:03:45Z</time>
      </trkpt>
      <trkpt lat="44.22289" lon="3.50593">
        <ele>1109.498779</ele>
        <time>2013-11-03T10:03:47Z</time>
      </trkpt>
      <trkpt lat="44.22296" lon="3.5059">
        <ele>1110.940674</ele>
        <time>2013-11-03T10:03:53Z</time>
      </trkpt>
      <trkpt lat="44.22302" lon="3.50589">
        <ele>1111.421387</ele>
        <time>2013-11-03T10:03:57Z</time>
      </trkpt>
      <trkpt lat="44.22306" lon="3.50586">
        <ele>1110.940674</ele>
        <time>2013-11-03T10:04:01Z</time>
      </trkpt>
      <trkpt lat="44.22316" lon="3.50579">
        <ele>1112.863281</ele>
        <time>2013-11-03T10:04:11Z</time>
      </trkpt>
      <trkpt lat="44.22319" lon="3.50576">
        <ele>1113.343994</ele>
        <time>2013-11-03T10:04:15Z</time>
      </trkpt>
      <trkpt lat="44.22324" lon="3.50578">
        <ele>1115.266602</ele>
        <time>2013-11-03T10:04:20Z</time>
      </trkpt>
      <trkpt lat="44.22328" lon="3.50577">
        <ele>1115.747314</ele>
        <time>2013-11-03T10:04:31Z</time>
      </trkpt>
      <trkpt lat="44.22328" lon="3.50576">
        <ele>1114.305176</ele>
        <time>2013-11-03T10:04:34Z</time>
      </trkpt>
      <trkpt lat="44.22331" lon="3.50578">
        <ele>1114.305176</ele>
        <time>2013-11-03T10:04:41Z</time>
      </trkpt>
      <trkpt lat="44.22336" lon="3.50585">
        <ele>1113.824463</ele>
        <time>2013-11-03T10:04:47Z</time>
      </trkpt>
      <trkpt lat="44.22348" lon="3.50596">
        <ele>1113.824463</ele>
        <time>2013-11-03T10:04:58Z</time>
      </trkpt>
      <trkpt lat="44.22354" lon="3.50603">
        <ele>1112.382568</ele>
        <time>2013-11-03T10:05:07Z</time>
      </trkpt>
      <trkpt lat="44.22356" lon="3.50615">
        <ele>1110.459961</ele>
        <time>2013-11-03T10:05:20Z</time>
      </trkpt>
      <trkpt lat="44.22356" lon="3.50616">
        <ele>1110.940674</ele>
        <time>2013-11-03T10:05:36Z</time>
      </trkpt>
      <trkpt lat="44.22356" lon="3.50615">
        <ele>1113.343994</ele>
        <time>2013-11-03T10:05:58Z</time>
      </trkpt>
      <trkpt lat="44.22356" lon="3.50616">
        <ele>1110.940674</ele>
        <time>2013-11-03T10:06:03Z</time>
      </trkpt>
      <trkpt lat="44.22358" lon="3.50619">
        <ele>1109.979248</ele>
        <time>2013-11-03T10:06:06Z</time>
      </trkpt>
      <trkpt lat="44.22358" lon="3.50638">
        <ele>1106.614746</ele>
        <time>2013-11-03T10:06:16Z</time>
      </trkpt>
      <trkpt lat="44.22358" lon="3.5064">
        <ele>1106.614746</ele>
        <time>2013-11-03T10:06:17Z</time>
      </trkpt>
      <trkpt lat="44.2236" lon="3.5065">
        <ele>1105.653564</ele>
        <time>2013-11-03T10:06:23Z</time>
      </trkpt>
      <trkpt lat="44.2236" lon="3.50655">
        <ele>1105.653564</ele>
        <time>2013-11-03T10:06:26Z</time>
      </trkpt>
      <trkpt lat="44.2236" lon="3.50674">
        <ele>1105.172852</ele>
        <time>2013-11-03T10:06:37Z</time>
      </trkpt>
      <trkpt lat="44.2236" lon="3.50679">
        <ele>1105.172852</ele>
        <time>2013-11-03T10:06:40Z</time>
      </trkpt>
      <trkpt lat="44.22362" lon="3.50684">
        <ele>1104.692139</ele>
        <time>2013-11-03T10:06:47Z</time>
      </trkpt>
      <trkpt lat="44.22363" lon="3.5069">
        <ele>1105.172852</ele>
        <time>2013-11-03T10:06:51Z</time>
      </trkpt>
      <trkpt lat="44.22364" lon="3.50693">
        <ele>1107.576172</ele>
        <time>2013-11-03T10:06:53Z</time>
      </trkpt>
      <trkpt lat="44.22362" lon="3.50698">
        <ele>1105.653564</ele>
        <time>2013-11-03T10:06:58Z</time>
      </trkpt>
      <trkpt lat="44.22367" lon="3.50703">
        <ele>1104.21167</ele>
        <time>2013-11-03T10:07:07Z</time>
      </trkpt>
      <trkpt lat="44.22367" lon="3.50706">
        <ele>1104.692139</ele>
        <time>2013-11-03T10:07:09Z</time>
      </trkpt>
      <trkpt lat="44.22364" lon="3.50711">
        <ele>1104.21167</ele>
        <time>2013-11-03T10:07:13Z</time>
      </trkpt>
      <trkpt lat="44.22363" lon="3.50716">
        <ele>1102.769531</ele>
        <time>2013-11-03T10:07:16Z</time>
      </trkpt>
      <trkpt lat="44.22362" lon="3.50718">
        <ele>1102.769531</ele>
        <time>2013-11-03T10:07:17Z</time>
      </trkpt>
      <trkpt lat="44.22362" lon="3.50732">
        <ele>1101.327637</ele>
        <time>2013-11-03T10:07:27Z</time>
      </trkpt>
      <trkpt lat="44.22362" lon="3.50741">
        <ele>1100.366455</ele>
        <time>2013-11-03T10:07:32Z</time>
      </trkpt>
      <trkpt lat="44.22363" lon="3.50744">
        <ele>1100.366455</ele>
        <time>2013-11-03T10:07:34Z</time>
      </trkpt>
      <trkpt lat="44.2236" lon="3.50752">
        <ele>1099.404785</ele>
        <time>2013-11-03T10:07:39Z</time>
      </trkpt>
      <trkpt lat="44.22357" lon="3.50764">
        <ele>1098.924072</ele>
        <time>2013-11-03T10:07:46Z</time>
      </trkpt>
      <trkpt lat="44.22356" lon="3.50776">
        <ele>1099.885498</ele>
        <time>2013-11-03T10:07:53Z</time>
      </trkpt>
      <trkpt lat="44.22354" lon="3.50799">
        <ele>1100.846924</ele>
        <time>2013-11-03T10:08:06Z</time>
      </trkpt>
      <trkpt lat="44.22348" lon="3.50815">
        <ele>1099.885498</ele>
        <time>2013-11-03T10:08:16Z</time>
      </trkpt>
      <trkpt lat="44.2235" lon="3.50824">
        <ele>1098.924072</ele>
        <time>2013-11-03T10:08:21Z</time>
      </trkpt>
      <trkpt lat="44.22352" lon="3.50836">
        <ele>1099.404785</ele>
        <time>2013-11-03T10:08:29Z</time>
      </trkpt>
      <trkpt lat="44.22352" lon="3.50841">
        <ele>1098.924072</ele>
        <time>2013-11-03T10:08:32Z</time>
      </trkpt>
      <trkpt lat="44.22361" lon="3.50848">
        <ele>1098.443359</ele>
        <time>2013-11-03T10:08:39Z</time>
      </trkpt>
      <trkpt lat="44.22372" lon="3.5086">
        <ele>1096.520996</ele>
        <time>2013-11-03T10:08:49Z</time>
      </trkpt>
      <trkpt lat="44.22378" lon="3.50867">
        <ele>1097.001465</ele>
        <time>2013-11-03T10:08:55Z</time>
      </trkpt>
      <trkpt lat="44.22383" lon="3.50878">
        <ele>1097.001465</ele>
        <time>2013-11-03T10:09:04Z</time>
      </trkpt>
      <trkpt lat="44.22384" lon="3.50883">
        <ele>1095.55957</ele>
        <time>2013-11-03T10:09:07Z</time>
      </trkpt>
      <trkpt lat="44.22385" lon="3.50893">
        <ele>1094.598145</ele>
        <time>2013-11-03T10:09:16Z</time>
      </trkpt>
      <trkpt lat="44.22384" lon="3.5089">
        <ele>1095.55957</ele>
        <time>2013-11-03T10:09:29Z</time>
      </trkpt>
      <trkpt lat="44.22385" lon="3.50905">
        <ele>1096.520996</ele>
        <time>2013-11-03T10:09:40Z</time>
      </trkpt>
      <trkpt lat="44.22383" lon="3.50911">
        <ele>1093.636963</ele>
        <time>2013-11-03T10:09:44Z</time>
      </trkpt>
      <trkpt lat="44.22381" lon="3.50917">
        <ele>1095.078857</ele>
        <time>2013-11-03T10:09:48Z</time>
      </trkpt>
      <trkpt lat="44.22378" lon="3.50923">
        <ele>1097.482178</ele>
        <time>2013-11-03T10:09:52Z</time>
      </trkpt>
      <trkpt lat="44.22382" lon="3.50934">
        <ele>1096.040283</ele>
        <time>2013-11-03T10:09:59Z</time>
      </trkpt>
      <trkpt lat="44.22383" lon="3.50937">
        <ele>1096.520996</ele>
        <time>2013-11-03T10:10:02Z</time>
      </trkpt>
      <trkpt lat="44.22382" lon="3.50942">
        <ele>1094.598145</ele>
        <time>2013-11-03T10:10:05Z</time>
      </trkpt>
      <trkpt lat="44.22382" lon="3.50943">
        <ele>1094.598145</ele>
        <time>2013-11-03T10:10:06Z</time>
      </trkpt>
      <trkpt lat="44.22382" lon="3.50947">
        <ele>1096.040283</ele>
        <time>2013-11-03T10:10:09Z</time>
      </trkpt>
      <trkpt lat="44.22382" lon="3.50949">
        <ele>1096.520996</ele>
        <time>2013-11-03T10:10:10Z</time>
      </trkpt>
      <trkpt lat="44.22382" lon="3.50952">
        <ele>1095.078857</ele>
        <time>2013-11-03T10:10:12Z</time>
      </trkpt>
      <trkpt lat="44.2238" lon="3.50956">
        <ele>1092.675781</ele>
        <time>2013-11-03T10:10:15Z</time>
      </trkpt>
      <trkpt lat="44.22378" lon="3.50959">
        <ele>1092.675781</ele>
        <time>2013-11-03T10:10:17Z</time>
      </trkpt>
      <trkpt lat="44.22376" lon="3.50961">
        <ele>1092.675781</ele>
        <time>2013-11-03T10:10:19Z</time>
      </trkpt>
      <trkpt lat="44.22375" lon="3.50966">
        <ele>1090.75293</ele>
        <time>2013-11-03T10:10:22Z</time>
      </trkpt>
      <trkpt lat="44.22376" lon="3.5097">
        <ele>1091.714355</ele>
        <time>2013-11-03T10:10:25Z</time>
      </trkpt>
      <trkpt lat="44.2238" lon="3.50977">
        <ele>1094.117676</ele>
        <time>2013-11-03T10:10:33Z</time>
      </trkpt>
      <trkpt lat="44.22382" lon="3.50978">
        <ele>1091.233643</ele>
        <time>2013-11-03T10:10:51Z</time>
      </trkpt>
      <trkpt lat="44.22382" lon="3.50978">
        <ele>1092.195068</ele>
        <time>2013-11-03T10:11:07Z</time>
      </trkpt>
      <trkpt lat="44.22383" lon="3.50979">
        <ele>1093.15625</ele>
        <time>2013-11-03T10:12:07Z</time>
      </trkpt>
      <trkpt lat="44.22385" lon="3.50978">
        <ele>1091.714355</ele>
        <time>2013-11-03T10:12:49Z</time>
      </trkpt>
      <trkpt lat="44.22385" lon="3.50977">
        <ele>1091.233643</ele>
        <time>2013-11-03T10:12:54Z</time>
      </trkpt>
      <trkpt lat="44.22385" lon="3.50977">
        <ele>1091.233643</ele>
        <time>2013-11-03T10:13:02Z</time>
      </trkpt>
      <trkpt lat="44.22385" lon="3.5097">
        <ele>1091.233643</ele>
        <time>2013-11-03T10:13:07Z</time>
      </trkpt>
      <trkpt lat="44.22396" lon="3.50984">
        <ele>1090.272461</ele>
        <time>2013-11-03T10:13:17Z</time>
      </trkpt>
      <trkpt lat="44.2241" lon="3.50995">
        <ele>1089.311035</ele>
        <time>2013-11-03T10:13:28Z</time>
      </trkpt>
      <trkpt lat="44.22419" lon="3.50997">
        <ele>1089.311035</ele>
        <time>2013-11-03T10:13:35Z</time>
      </trkpt>
      <trkpt lat="44.22425" lon="3.51005">
        <ele>1087.869141</ele>
        <time>2013-11-03T10:13:42Z</time>
      </trkpt>
      <trkpt lat="44.22435" lon="3.51024">
        <ele>1086.907715</ele>
        <time>2013-11-03T10:13:56Z</time>
      </trkpt>
      <trkpt lat="44.22446" lon="3.51035">
        <ele>1084.023926</ele>
        <time>2013-11-03T10:14:05Z</time>
      </trkpt>
      <trkpt lat="44.22449" lon="3.51039">
        <ele>1080.65918</ele>
        <time>2013-11-03T10:14:09Z</time>
      </trkpt>
      <trkpt lat="44.22453" lon="3.51044">
        <ele>1081.139893</ele>
        <time>2013-11-03T10:14:21Z</time>
      </trkpt>
      <trkpt lat="44.22454" lon="3.51045">
        <ele>1081.620361</ele>
        <time>2013-11-03T10:14:23Z</time>
      </trkpt>
      <trkpt lat="44.22456" lon="3.51047">
        <ele>1079.217041</ele>
        <time>2013-11-03T10:14:25Z</time>
      </trkpt>
      <trkpt lat="44.22458" lon="3.51049">
        <ele>1079.217041</ele>
        <time>2013-11-03T10:14:28Z</time>
      </trkpt>
      <trkpt lat="44.22464" lon="3.51055">
        <ele>1077.775146</ele>
        <time>2013-11-03T10:14:37Z</time>
      </trkpt>
      <trkpt lat="44.22467" lon="3.51055">
        <ele>1077.775146</ele>
        <time>2013-11-03T10:14:41Z</time>
      </trkpt>
      <trkpt lat="44.22476" lon="3.51063">
        <ele>1076.813965</ele>
        <time>2013-11-03T10:14:50Z</time>
      </trkpt>
      <trkpt lat="44.22481" lon="3.51074">
        <ele>1075.852539</ele>
        <time>2013-11-03T10:14:56Z</time>
      </trkpt>
      <trkpt lat="44.22483" lon="3.51083">
        <ele>1075.852539</ele>
        <time>2013-11-03T10:15:01Z</time>
      </trkpt>
      <trkpt lat="44.22488" lon="3.51092">
        <ele>1074.891357</ele>
        <time>2013-11-03T10:15:06Z</time>
      </trkpt>
      <trkpt lat="44.22489" lon="3.51094">
        <ele>1075.371826</ele>
        <time>2013-11-03T10:15:08Z</time>
      </trkpt>
      <trkpt lat="44.22501" lon="3.51114">
        <ele>1075.371826</ele>
        <time>2013-11-03T10:15:22Z</time>
      </trkpt>
      <trkpt lat="44.22514" lon="3.51128">
        <ele>1074.891357</ele>
        <time>2013-11-03T10:15:34Z</time>
      </trkpt>
      <trkpt lat="44.22518" lon="3.51135">
        <ele>1074.410645</ele>
        <time>2013-11-03T10:15:39Z</time>
      </trkpt>
      <trkpt lat="44.22524" lon="3.51145">
        <ele>1074.410645</ele>
        <time>2013-11-03T10:15:46Z</time>
      </trkpt>
      <trkpt lat="44.22527" lon="3.51172">
        <ele>1073.929932</ele>
        <time>2013-11-03T10:16:02Z</time>
      </trkpt>
      <trkpt lat="44.22533" lon="3.51187">
        <ele>1073.929932</ele>
        <time>2013-11-03T10:16:10Z</time>
      </trkpt>
      <trkpt lat="44.22533" lon="3.5119">
        <ele>1074.891357</ele>
        <time>2013-11-03T10:16:12Z</time>
      </trkpt>
      <trkpt lat="44.22533" lon="3.51199">
        <ele>1074.891357</ele>
        <time>2013-11-03T10:16:23Z</time>
      </trkpt>
      <trkpt lat="44.22534" lon="3.512">
        <ele>1074.410645</ele>
        <time>2013-11-03T10:16:24Z</time>
      </trkpt>
      <trkpt lat="44.22536" lon="3.51214">
        <ele>1074.891357</ele>
        <time>2013-11-03T10:16:32Z</time>
      </trkpt>
      <trkpt lat="44.22538" lon="3.51239">
        <ele>1074.891357</ele>
        <time>2013-11-03T10:16:45Z</time>
      </trkpt>
      <trkpt lat="44.22547" lon="3.51259">
        <ele>1073.449463</ele>
        <time>2013-11-03T10:16:59Z</time>
      </trkpt>
      <trkpt lat="44.22556" lon="3.51268">
        <ele>1075.852539</ele>
        <time>2013-11-03T10:17:08Z</time>
      </trkpt>
      <trkpt lat="44.22566" lon="3.51281">
        <ele>1072.007324</ele>
        <time>2013-11-03T10:17:19Z</time>
      </trkpt>
      <trkpt lat="44.22568" lon="3.51302">
        <ele>1073.929932</ele>
        <time>2013-11-03T10:17:32Z</time>
      </trkpt>
      <trkpt lat="44.22566" lon="3.51305">
        <ele>1073.929932</ele>
        <time>2013-11-03T10:17:35Z</time>
      </trkpt>
      <trkpt lat="44.22563" lon="3.51312">
        <ele>1074.891357</ele>
        <time>2013-11-03T10:17:40Z</time>
      </trkpt>
      <trkpt lat="44.22563" lon="3.51335">
        <ele>1076.813965</ele>
        <time>2013-11-03T10:17:54Z</time>
      </trkpt>
      <trkpt lat="44.22562" lon="3.51336">
        <ele>1076.813965</ele>
        <time>2013-11-03T10:17:55Z</time>
      </trkpt>
      <trkpt lat="44.22561" lon="3.5134">
        <ele>1077.294678</ele>
        <time>2013-11-03T10:18:06Z</time>
      </trkpt>
      <trkpt lat="44.2256" lon="3.5134">
        <ele>1077.294678</ele>
        <time>2013-11-03T10:18:14Z</time>
      </trkpt>
      <trkpt lat="44.22561" lon="3.51335">
        <ele>1077.775146</ele>
        <time>2013-11-03T10:18:18Z</time>
      </trkpt>
      <trkpt lat="44.22561" lon="3.51321">
        <ele>1076.333252</ele>
        <time>2013-11-03T10:18:25Z</time>
      </trkpt>
      <trkpt lat="44.22561" lon="3.51318">
        <ele>1075.852539</ele>
        <time>2013-11-03T10:18:27Z</time>
      </trkpt>
      <trkpt lat="44.22555" lon="3.51316">
        <ele>1074.891357</ele>
        <time>2013-11-03T10:18:35Z</time>
      </trkpt>
      <trkpt lat="44.22546" lon="3.51321">
        <ele>1073.929932</ele>
        <time>2013-11-03T10:18:43Z</time>
      </trkpt>
      <trkpt lat="44.22544" lon="3.51322">
        <ele>1074.410645</ele>
        <time>2013-11-03T10:18:45Z</time>
      </trkpt>
      <trkpt lat="44.22535" lon="3.51333">
        <ele>1072.007324</ele>
        <time>2013-11-03T10:18:54Z</time>
      </trkpt>
      <trkpt lat="44.22532" lon="3.51337">
        <ele>1072.488037</ele>
        <time>2013-11-03T10:18:57Z</time>
      </trkpt>
      <trkpt lat="44.22528" lon="3.51353">
        <ele>1070.56543</ele>
        <time>2013-11-03T10:19:07Z</time>
      </trkpt>
      <trkpt lat="44.2253" lon="3.51364">
        <ele>1069.604248</ele>
        <time>2013-11-03T10:19:15Z</time>
      </trkpt>
      <trkpt lat="44.22534" lon="3.51369">
        <ele>1067.681152</ele>
        <time>2013-11-03T10:19:18Z</time>
      </trkpt>
      <trkpt lat="44.22549" lon="3.51385">
        <ele>1067.200684</ele>
        <time>2013-11-03T10:19:31Z</time>
      </trkpt>
      <trkpt lat="44.22562" lon="3.51403">
        <ele>1065.758789</ele>
        <time>2013-11-03T10:19:45Z</time>
      </trkpt>
      <trkpt lat="44.22569" lon="3.5142">
        <ele>1065.278076</ele>
        <time>2013-11-03T10:19:58Z</time>
      </trkpt>
      <trkpt lat="44.22576" lon="3.51439">
        <ele>1065.278076</ele>
        <time>2013-11-03T10:20:10Z</time>
      </trkpt>
      <trkpt lat="44.2258" lon="3.51446">
        <ele>1066.239258</ele>
        <time>2013-11-03T10:20:15Z</time>
      </trkpt>
      <trkpt lat="44.22585" lon="3.51458">
        <ele>1065.278076</ele>
        <time>2013-11-03T10:20:22Z</time>
      </trkpt>
      <trkpt lat="44.22588" lon="3.51461">
        <ele>1064.31665</ele>
        <time>2013-11-03T10:20:25Z</time>
      </trkpt>
      <trkpt lat="44.22592" lon="3.51478">
        <ele>1061.913574</ele>
        <time>2013-11-03T10:20:36Z</time>
      </trkpt>
      <trkpt lat="44.22597" lon="3.51499">
        <ele>1060.952148</ele>
        <time>2013-11-03T10:20:48Z</time>
      </trkpt>
      <trkpt lat="44.22597" lon="3.515">
        <ele>1060.952148</ele>
        <time>2013-11-03T10:20:49Z</time>
      </trkpt>
      <trkpt lat="44.22598" lon="3.51512">
        <ele>1058.068359</ele>
        <time>2013-11-03T10:20:57Z</time>
      </trkpt>
      <trkpt lat="44.22601" lon="3.51517">
        <ele>1057.106934</ele>
        <time>2013-11-03T10:21:01Z</time>
      </trkpt>
      <trkpt lat="44.22611" lon="3.51524">
        <ele>1056.145508</ele>
        <time>2013-11-03T10:21:10Z</time>
      </trkpt>
      <trkpt lat="44.22621" lon="3.51535">
        <ele>1053.742432</ele>
        <time>2013-11-03T10:21:20Z</time>
      </trkpt>
      <trkpt lat="44.22631" lon="3.51551">
        <ele>1052.781006</ele>
        <time>2013-11-03T10:21:33Z</time>
      </trkpt>
      <trkpt lat="44.22636" lon="3.51573">
        <ele>1052.781006</ele>
        <time>2013-11-03T10:21:46Z</time>
      </trkpt>
      <trkpt lat="44.22635" lon="3.51574">
        <ele>1052.300293</ele>
        <time>2013-11-03T10:21:47Z</time>
      </trkpt>
      <trkpt lat="44.22634" lon="3.516">
        <ele>1054.223145</ele>
        <time>2013-11-03T10:22:01Z</time>
      </trkpt>
      <trkpt lat="44.22643" lon="3.51612">
        <ele>1053.742432</ele>
        <time>2013-11-03T10:22:14Z</time>
      </trkpt>
      <trkpt lat="44.22643" lon="3.51616">
        <ele>1055.184326</ele>
        <time>2013-11-03T10:22:22Z</time>
      </trkpt>
      <trkpt lat="44.22642" lon="3.51616">
        <ele>1054.703613</ele>
        <time>2013-11-03T10:22:25Z</time>
      </trkpt>
      <trkpt lat="44.22646" lon="3.51621">
        <ele>1054.223145</ele>
        <time>2013-11-03T10:22:29Z</time>
      </trkpt>
      <trkpt lat="44.22652" lon="3.51626">
        <ele>1052.300293</ele>
        <time>2013-11-03T10:22:39Z</time>
      </trkpt>
      <trkpt lat="44.22656" lon="3.51634">
        <ele>1052.781006</ele>
        <time>2013-11-03T10:22:59Z</time>
      </trkpt>
      <trkpt lat="44.22659" lon="3.51641">
        <ele>1052.300293</ele>
        <time>2013-11-03T10:23:05Z</time>
      </trkpt>
      <trkpt lat="44.22664" lon="3.51662">
        <ele>1052.781006</ele>
        <time>2013-11-03T10:23:14Z</time>
      </trkpt>
      <trkpt lat="44.22672" lon="3.51681">
        <ele>1052.781006</ele>
        <time>2013-11-03T10:23:29Z</time>
      </trkpt>
      <trkpt lat="44.22677" lon="3.51683">
        <ele>1053.261719</ele>
        <time>2013-11-03T10:23:43Z</time>
      </trkpt>
      <trkpt lat="44.22674" lon="3.51685">
        <ele>1054.223145</ele>
        <time>2013-11-03T10:24:02Z</time>
      </trkpt>
      <trkpt lat="44.22678" lon="3.51699">
        <ele>1053.742432</ele>
        <time>2013-11-03T10:24:21Z</time>
      </trkpt>
      <trkpt lat="44.22679" lon="3.51701">
        <ele>1053.742432</ele>
        <time>2013-11-03T10:24:22Z</time>
      </trkpt>
      <trkpt lat="44.2268" lon="3.51705">
        <ele>1053.261719</ele>
        <time>2013-11-03T10:24:25Z</time>
      </trkpt>
      <trkpt lat="44.2268" lon="3.51711">
        <ele>1059.029541</ele>
        <time>2013-11-03T10:24:31Z</time>
      </trkpt>
      <trkpt lat="44.2268" lon="3.51712">
        <ele>1055.184326</ele>
        <time>2013-11-03T10:24:32Z</time>
      </trkpt>
      <trkpt lat="44.2268" lon="3.51712">
        <ele>1050.858154</ele>
        <time>2013-11-03T10:24:33Z</time>
      </trkpt>
      <trkpt lat="44.22684" lon="3.51717">
        <ele>1053.261719</ele>
        <time>2013-11-03T10:24:37Z</time>
      </trkpt>
      <trkpt lat="44.22689" lon="3.51728">
        <ele>1052.781006</ele>
        <time>2013-11-03T10:24:42Z</time>
      </trkpt>
      <trkpt lat="44.2269" lon="3.51731">
        <ele>1052.300293</ele>
        <time>2013-11-03T10:24:44Z</time>
      </trkpt>
      <trkpt lat="44.22691" lon="3.51741">
        <ele>1053.261719</ele>
        <time>2013-11-03T10:24:49Z</time>
      </trkpt>
      <trkpt lat="44.22695" lon="3.51762">
        <ele>1052.781006</ele>
        <time>2013-11-03T10:25:00Z</time>
      </trkpt>
      <trkpt lat="44.22699" lon="3.51778">
        <ele>1053.261719</ele>
        <time>2013-11-03T10:25:14Z</time>
      </trkpt>
      <trkpt lat="44.22709" lon="3.51799">
        <ele>1054.223145</ele>
        <time>2013-11-03T10:25:30Z</time>
      </trkpt>
      <trkpt lat="44.22709" lon="3.518">
        <ele>1052.781006</ele>
        <time>2013-11-03T10:25:33Z</time>
      </trkpt>
      <trkpt lat="44.22708" lon="3.51798">
        <ele>1052.781006</ele>
        <time>2013-11-03T10:25:34Z</time>
      </trkpt>
      <trkpt lat="44.22709" lon="3.51795">
        <ele>1053.742432</ele>
        <time>2013-11-03T10:25:43Z</time>
      </trkpt>
      <trkpt lat="44.22713" lon="3.518">
        <ele>1054.223145</ele>
        <time>2013-11-03T10:25:54Z</time>
      </trkpt>
      <trkpt lat="44.22714" lon="3.51799">
        <ele>1054.223145</ele>
        <time>2013-11-03T10:26:03Z</time>
      </trkpt>
      <trkpt lat="44.22712" lon="3.51805">
        <ele>1055.184326</ele>
        <time>2013-11-03T10:26:12Z</time>
      </trkpt>
      <trkpt lat="44.22712" lon="3.51803">
        <ele>1054.703613</ele>
        <time>2013-11-03T10:26:18Z</time>
      </trkpt>
      <trkpt lat="44.22707" lon="3.51801">
        <ele>1055.184326</ele>
        <time>2013-11-03T10:26:23Z</time>
      </trkpt>
      <trkpt lat="44.22706" lon="3.51808">
        <ele>1055.184326</ele>
        <time>2013-11-03T10:26:27Z</time>
      </trkpt>
      <trkpt lat="44.22707" lon="3.51819">
        <ele>1055.665039</ele>
        <time>2013-11-03T10:26:35Z</time>
      </trkpt>
      <trkpt lat="44.22711" lon="3.5184">
        <ele>1056.145508</ele>
        <time>2013-11-03T10:26:50Z</time>
      </trkpt>
      <trkpt lat="44.22715" lon="3.51848">
        <ele>1056.145508</ele>
        <time>2013-11-03T10:27:07Z</time>
      </trkpt>
      <trkpt lat="44.22722" lon="3.51861">
        <ele>1057.587646</ele>
        <time>2013-11-03T10:27:18Z</time>
      </trkpt>
      <trkpt lat="44.22724" lon="3.51865">
        <ele>1057.106934</ele>
        <time>2013-11-03T10:27:20Z</time>
      </trkpt>
      <trkpt lat="44.22734" lon="3.51882">
        <ele>1058.548828</ele>
        <time>2013-11-03T10:27:33Z</time>
      </trkpt>
      <trkpt lat="44.22747" lon="3.51899">
        <ele>1058.068359</ele>
        <time>2013-11-03T10:27:47Z</time>
      </trkpt>
      <trkpt lat="44.22759" lon="3.51908">
        <ele>1060.471436</ele>
        <time>2013-11-03T10:28:00Z</time>
      </trkpt>
      <trkpt lat="44.22769" lon="3.51923">
        <ele>1058.548828</ele>
        <time>2013-11-03T10:28:13Z</time>
      </trkpt>
      <trkpt lat="44.22769" lon="3.5193">
        <ele>1057.587646</ele>
        <time>2013-11-03T10:28:17Z</time>
      </trkpt>
      <trkpt lat="44.22778" lon="3.51955">
        <ele>1058.068359</ele>
        <time>2013-11-03T10:28:33Z</time>
      </trkpt>
      <trkpt lat="44.22789" lon="3.51972">
        <ele>1059.510254</ele>
        <time>2013-11-03T10:28:47Z</time>
      </trkpt>
      <trkpt lat="44.2279" lon="3.51974">
        <ele>1059.029541</ele>
        <time>2013-11-03T10:28:49Z</time>
      </trkpt>
      <trkpt lat="44.22792" lon="3.51979">
        <ele>1059.510254</ele>
        <time>2013-11-03T10:28:53Z</time>
      </trkpt>
      <trkpt lat="44.22796" lon="3.5199">
        <ele>1058.548828</ele>
        <time>2013-11-03T10:29:02Z</time>
      </trkpt>
      <trkpt lat="44.22797" lon="3.51993">
        <ele>1057.106934</ele>
        <time>2013-11-03T10:29:05Z</time>
      </trkpt>
      <trkpt lat="44.22798" lon="3.51994">
        <ele>1065.758789</ele>
        <time>2013-11-03T10:29:06Z</time>
      </trkpt>
      <trkpt lat="44.22799" lon="3.51995">
        <ele>1061.913574</ele>
        <time>2013-11-03T10:29:07Z</time>
      </trkpt>
      <trkpt lat="44.22801" lon="3.51995">
        <ele>1058.068359</ele>
        <time>2013-11-03T10:29:10Z</time>
      </trkpt>
      <trkpt lat="44.22802" lon="3.51996">
        <ele>1058.068359</ele>
        <time>2013-11-03T10:29:11Z</time>
      </trkpt>
      <trkpt lat="44.22808" lon="3.52006">
        <ele>1058.548828</ele>
        <time>2013-11-03T10:29:21Z</time>
      </trkpt>
      <trkpt lat="44.22813" lon="3.52013">
        <ele>1060.952148</ele>
        <time>2013-11-03T10:29:26Z</time>
      </trkpt>
      <trkpt lat="44.22825" lon="3.52029">
        <ele>1061.432861</ele>
        <time>2013-11-03T10:29:40Z</time>
      </trkpt>
      <trkpt lat="44.22826" lon="3.52032">
        <ele>1060.471436</ele>
        <time>2013-11-03T10:29:42Z</time>
      </trkpt>
      <trkpt lat="44.2283" lon="3.52035">
        <ele>1060.471436</ele>
        <time>2013-11-03T10:29:54Z</time>
      </trkpt>
      <trkpt lat="44.22833" lon="3.52037">
        <ele>1062.874756</ele>
        <time>2013-11-03T10:30:15Z</time>
      </trkpt>
      <trkpt lat="44.22837" lon="3.52045">
        <ele>1060.952148</ele>
        <time>2013-11-03T10:30:20Z</time>
      </trkpt>
      <trkpt lat="44.2284" lon="3.52051">
        <ele>1060.471436</ele>
        <time>2013-11-03T10:30:24Z</time>
      </trkpt>
      <trkpt lat="44.22849" lon="3.52075">
        <ele>1061.432861</ele>
        <time>2013-11-03T10:30:39Z</time>
      </trkpt>
      <trkpt lat="44.22851" lon="3.52085">
        <ele>1062.394043</ele>
        <time>2013-11-03T10:30:45Z</time>
      </trkpt>
      <trkpt lat="44.22852" lon="3.52092">
        <ele>1062.874756</ele>
        <time>2013-11-03T10:30:49Z</time>
      </trkpt>
      <trkpt lat="44.22851" lon="3.52114">
        <ele>1063.835938</ele>
        <time>2013-11-03T10:31:04Z</time>
      </trkpt>
      <trkpt lat="44.2285" lon="3.52121">
        <ele>1065.278076</ele>
        <time>2013-11-03T10:31:10Z</time>
      </trkpt>
      <trkpt lat="44.22849" lon="3.52121">
        <ele>1064.31665</ele>
        <time>2013-11-03T10:31:11Z</time>
      </trkpt>
      <trkpt lat="44.22844" lon="3.52128">
        <ele>1065.278076</ele>
        <time>2013-11-03T10:31:17Z</time>
      </trkpt>
      <trkpt lat="44.22842" lon="3.52131">
        <ele>1065.278076</ele>
        <time>2013-11-03T10:31:20Z</time>
      </trkpt>
      <trkpt lat="44.2283" lon="3.5214">
        <ele>1065.278076</ele>
        <time>2013-11-03T10:31:30Z</time>
      </trkpt>
      <trkpt lat="44.22828" lon="3.52143">
        <ele>1064.31665</ele>
        <time>2013-11-03T10:31:33Z</time>
      </trkpt>
      <trkpt lat="44.22816" lon="3.52151">
        <ele>1064.31665</ele>
        <time>2013-11-03T10:31:45Z</time>
      </trkpt>
      <trkpt lat="44.22808" lon="3.52154">
        <ele>1064.797363</ele>
        <time>2013-11-03T10:31:52Z</time>
      </trkpt>
      <trkpt lat="44.22789" lon="3.52154">
        <ele>1066.239258</ele>
        <time>2013-11-03T10:32:06Z</time>
      </trkpt>
      <trkpt lat="44.22787" lon="3.52155">
        <ele>1065.758789</ele>
        <time>2013-11-03T10:32:08Z</time>
      </trkpt>
      <trkpt lat="44.22779" lon="3.52154">
        <ele>1065.758789</ele>
        <time>2013-11-03T10:32:15Z</time>
      </trkpt>
      <trkpt lat="44.22774" lon="3.52152">
        <ele>1063.835938</ele>
        <time>2013-11-03T10:32:31Z</time>
      </trkpt>
      <trkpt lat="44.22773" lon="3.52152">
        <ele>1064.797363</ele>
        <time>2013-11-03T10:32:35Z</time>
      </trkpt>
      <trkpt lat="44.22764" lon="3.52158">
        <ele>1066.719971</ele>
        <time>2013-11-03T10:32:44Z</time>
      </trkpt>
      <trkpt lat="44.22763" lon="3.52159">
        <ele>1066.719971</ele>
        <time>2013-11-03T10:32:45Z</time>
      </trkpt>
      <trkpt lat="44.22755" lon="3.52162">
        <ele>1065.278076</ele>
        <time>2013-11-03T10:32:52Z</time>
      </trkpt>
      <trkpt lat="44.22745" lon="3.5217">
        <ele>1064.31665</ele>
        <time>2013-11-03T10:33:02Z</time>
      </trkpt>
      <trkpt lat="44.22731" lon="3.52183">
        <ele>1065.278076</ele>
        <time>2013-11-03T10:33:16Z</time>
      </trkpt>
      <trkpt lat="44.22719" lon="3.52191">
        <ele>1066.239258</ele>
        <time>2013-11-03T10:33:27Z</time>
      </trkpt>
      <trkpt lat="44.22708" lon="3.52205">
        <ele>1067.200684</ele>
        <time>2013-11-03T10:33:40Z</time>
      </trkpt>
      <trkpt lat="44.22702" lon="3.52208">
        <ele>1066.719971</ele>
        <time>2013-11-03T10:33:45Z</time>
      </trkpt>
      <trkpt lat="44.22697" lon="3.5221">
        <ele>1067.681152</ele>
        <time>2013-11-03T10:33:49Z</time>
      </trkpt>
      <trkpt lat="44.22692" lon="3.52212">
        <ele>1066.239258</ele>
        <time>2013-11-03T10:33:56Z</time>
      </trkpt>
      <trkpt lat="44.2269" lon="3.52214">
        <ele>1066.719971</ele>
        <time>2013-11-03T10:34:01Z</time>
      </trkpt>
      <trkpt lat="44.22676" lon="3.52219">
        <ele>1066.719971</ele>
        <time>2013-11-03T10:34:13Z</time>
      </trkpt>
      <trkpt lat="44.2266" lon="3.52219">
        <ele>1067.681152</ele>
        <time>2013-11-03T10:34:26Z</time>
      </trkpt>
      <trkpt lat="44.22656" lon="3.52221">
        <ele>1067.681152</ele>
        <time>2013-11-03T10:34:30Z</time>
      </trkpt>
      <trkpt lat="44.22651" lon="3.52221">
        <ele>1068.162109</ele>
        <time>2013-11-03T10:34:34Z</time>
      </trkpt>
      <trkpt lat="44.22643" lon="3.52223">
        <ele>1069.604248</ele>
        <time>2013-11-03T10:34:40Z</time>
      </trkpt>
      <trkpt lat="44.22634" lon="3.52221">
        <ele>1068.642822</ele>
        <time>2013-11-03T10:34:49Z</time>
      </trkpt>
      <trkpt lat="44.22629" lon="3.52216">
        <ele>1068.162109</ele>
        <time>2013-11-03T10:34:58Z</time>
      </trkpt>
      <trkpt lat="44.2262" lon="3.52209">
        <ele>1068.642822</ele>
        <time>2013-11-03T10:35:09Z</time>
      </trkpt>
      <trkpt lat="44.22614" lon="3.52196">
        <ele>1070.084717</ele>
        <time>2013-11-03T10:35:18Z</time>
      </trkpt>
      <trkpt lat="44.22607" lon="3.52184">
        <ele>1067.200684</ele>
        <time>2013-11-03T10:35:28Z</time>
      </trkpt>
      <trkpt lat="44.22605" lon="3.52181">
        <ele>1070.56543</ele>
        <time>2013-11-03T10:35:31Z</time>
      </trkpt>
      <trkpt lat="44.22603" lon="3.52178">
        <ele>1067.200684</ele>
        <time>2013-11-03T10:35:33Z</time>
      </trkpt>
      <trkpt lat="44.22602" lon="3.52177">
        <ele>1067.681152</ele>
        <time>2013-11-03T10:35:34Z</time>
      </trkpt>
      <trkpt lat="44.22591" lon="3.52157">
        <ele>1068.642822</ele>
        <time>2013-11-03T10:35:48Z</time>
      </trkpt>
      <trkpt lat="44.22588" lon="3.52149">
        <ele>1068.642822</ele>
        <time>2013-11-03T10:35:53Z</time>
      </trkpt>
      <trkpt lat="44.22581" lon="3.52138">
        <ele>1069.604248</ele>
        <time>2013-11-03T10:36:02Z</time>
      </trkpt>
      <trkpt lat="44.22571" lon="3.52119">
        <ele>1069.604248</ele>
        <time>2013-11-03T10:36:16Z</time>
      </trkpt>
      <trkpt lat="44.2257" lon="3.52117">
        <ele>1068.642822</ele>
        <time>2013-11-03T10:36:17Z</time>
      </trkpt>
      <trkpt lat="44.22567" lon="3.52114">
        <ele>1068.162109</ele>
        <time>2013-11-03T10:36:20Z</time>
      </trkpt>
      <trkpt lat="44.22568" lon="3.52102">
        <ele>1066.719971</ele>
        <time>2013-11-03T10:36:34Z</time>
      </trkpt>
      <trkpt lat="44.22567" lon="3.52104">
        <ele>1068.642822</ele>
        <time>2013-11-03T10:36:47Z</time>
      </trkpt>
      <trkpt lat="44.22566" lon="3.52103">
        <ele>1069.123535</ele>
        <time>2013-11-03T10:36:49Z</time>
      </trkpt>
      <trkpt lat="44.22551" lon="3.52086">
        <ele>1069.123535</ele>
        <time>2013-11-03T10:37:05Z</time>
      </trkpt>
      <trkpt lat="44.22547" lon="3.5208">
        <ele>1071.046143</ele>
        <time>2013-11-03T10:37:10Z</time>
      </trkpt>
      <trkpt lat="44.22544" lon="3.52078">
        <ele>1068.642822</ele>
        <time>2013-11-03T10:37:12Z</time>
      </trkpt>
      <trkpt lat="44.2254" lon="3.52075">
        <ele>1069.123535</ele>
        <time>2013-11-03T10:37:16Z</time>
      </trkpt>
      <trkpt lat="44.22526" lon="3.52053">
        <ele>1069.604248</ele>
        <time>2013-11-03T10:37:33Z</time>
      </trkpt>
      <trkpt lat="44.22516" lon="3.52037">
        <ele>1071.046143</ele>
        <time>2013-11-03T10:37:45Z</time>
      </trkpt>
      <trkpt lat="44.22515" lon="3.52034">
        <ele>1070.084717</ele>
        <time>2013-11-03T10:37:47Z</time>
      </trkpt>
      <trkpt lat="44.22507" lon="3.52024">
        <ele>1073.449463</ele>
        <time>2013-11-03T10:37:55Z</time>
      </trkpt>
      <trkpt lat="44.22502" lon="3.52016">
        <ele>1069.604248</ele>
        <time>2013-11-03T10:38:01Z</time>
      </trkpt>
      <trkpt lat="44.22488" lon="3.51994">
        <ele>1071.046143</ele>
        <time>2013-11-03T10:38:17Z</time>
      </trkpt>
      <trkpt lat="44.22475" lon="3.51973">
        <ele>1071.526611</ele>
        <time>2013-11-03T10:38:33Z</time>
      </trkpt>
      <trkpt lat="44.22465" lon="3.51959">
        <ele>1071.046143</ele>
        <time>2013-11-03T10:38:45Z</time>
      </trkpt>
      <trkpt lat="44.22451" lon="3.51939">
        <ele>1072.007324</ele>
        <time>2013-11-03T10:39:01Z</time>
      </trkpt>
      <trkpt lat="44.22434" lon="3.51916">
        <ele>1072.007324</ele>
        <time>2013-11-03T10:39:19Z</time>
      </trkpt>
      <trkpt lat="44.2242" lon="3.51896">
        <ele>1072.96875</ele>
        <time>2013-11-03T10:39:34Z</time>
      </trkpt>
      <trkpt lat="44.22405" lon="3.51877">
        <ele>1073.449463</ele>
        <time>2013-11-03T10:39:49Z</time>
      </trkpt>
      <trkpt lat="44.22395" lon="3.51863">
        <ele>1072.96875</ele>
        <time>2013-11-03T10:40:05Z</time>
      </trkpt>
      <trkpt lat="44.22394" lon="3.51859">
        <ele>1072.96875</ele>
        <time>2013-11-03T10:40:08Z</time>
      </trkpt>
      <trkpt lat="44.22382" lon="3.51839">
        <ele>1073.449463</ele>
        <time>2013-11-03T10:40:24Z</time>
      </trkpt>
      <trkpt lat="44.22369" lon="3.51813">
        <ele>1073.449463</ele>
        <time>2013-11-03T10:40:41Z</time>
      </trkpt>
      <trkpt lat="44.22367" lon="3.51806">
        <ele>1073.449463</ele>
        <time>2013-11-03T10:40:46Z</time>
      </trkpt>
      <trkpt lat="44.22361" lon="3.51794">
        <ele>1073.929932</ele>
        <time>2013-11-03T10:40:54Z</time>
      </trkpt>
      <trkpt lat="44.22349" lon="3.51773">
        <ele>1073.929932</ele>
        <time>2013-11-03T10:41:09Z</time>
      </trkpt>
      <trkpt lat="44.22338" lon="3.51751">
        <ele>1075.852539</ele>
        <time>2013-11-03T10:41:25Z</time>
      </trkpt>
      <trkpt lat="44.22334" lon="3.51743">
        <ele>1074.410645</ele>
        <time>2013-11-03T10:41:30Z</time>
      </trkpt>
      <trkpt lat="44.22329" lon="3.51731">
        <ele>1074.891357</ele>
        <time>2013-11-03T10:41:38Z</time>
      </trkpt>
      <trkpt lat="44.2232" lon="3.51713">
        <ele>1077.775146</ele>
        <time>2013-11-03T10:41:49Z</time>
      </trkpt>
      <trkpt lat="44.22308" lon="3.5169">
        <ele>1074.891357</ele>
        <time>2013-11-03T10:42:05Z</time>
      </trkpt>
      <trkpt lat="44.22302" lon="3.51681">
        <ele>1075.852539</ele>
        <time>2013-11-03T10:42:16Z</time>
      </trkpt>
      <trkpt lat="44.22288" lon="3.51662">
        <ele>1075.371826</ele>
        <time>2013-11-03T10:42:30Z</time>
      </trkpt>
      <trkpt lat="44.22275" lon="3.51647">
        <ele>1077.294678</ele>
        <time>2013-11-03T10:42:43Z</time>
      </trkpt>
      <trkpt lat="44.2227" lon="3.51642">
        <ele>1077.775146</ele>
        <time>2013-11-03T10:42:48Z</time>
      </trkpt>
      <trkpt lat="44.22257" lon="3.51625">
        <ele>1078.736572</ele>
        <time>2013-11-03T10:43:03Z</time>
      </trkpt>
      <trkpt lat="44.22251" lon="3.51618">
        <ele>1076.333252</ele>
        <time>2013-11-03T10:43:09Z</time>
      </trkpt>
      <trkpt lat="44.22248" lon="3.51615">
        <ele>1079.697754</ele>
        <time>2013-11-03T10:43:12Z</time>
      </trkpt>
      <trkpt lat="44.22247" lon="3.51614">
        <ele>1080.178467</ele>
        <time>2013-11-03T10:43:13Z</time>
      </trkpt>
      <trkpt lat="44.22245" lon="3.5161">
        <ele>1078.255859</ele>
        <time>2013-11-03T10:43:16Z</time>
      </trkpt>
      <trkpt lat="44.2224" lon="3.51606">
        <ele>1077.294678</ele>
        <time>2013-11-03T10:43:19Z</time>
      </trkpt>
      <trkpt lat="44.22229" lon="3.51594">
        <ele>1078.255859</ele>
        <time>2013-11-03T10:43:30Z</time>
      </trkpt>
      <trkpt lat="44.22214" lon="3.51577">
        <ele>1077.775146</ele>
        <time>2013-11-03T10:43:44Z</time>
      </trkpt>
      <trkpt lat="44.22206" lon="3.51569">
        <ele>1076.813965</ele>
        <time>2013-11-03T10:43:52Z</time>
      </trkpt>
      <trkpt lat="44.22204" lon="3.51566">
        <ele>1078.736572</ele>
        <time>2013-11-03T10:43:54Z</time>
      </trkpt>
      <trkpt lat="44.22189" lon="3.51553">
        <ele>1079.697754</ele>
        <time>2013-11-03T10:44:09Z</time>
      </trkpt>
      <trkpt lat="44.22175" lon="3.51539">
        <ele>1079.217041</ele>
        <time>2013-11-03T10:44:22Z</time>
      </trkpt>
      <trkpt lat="44.22171" lon="3.51536">
        <ele>1079.217041</ele>
        <time>2013-11-03T10:44:26Z</time>
      </trkpt>
      <trkpt lat="44.22169" lon="3.51534">
        <ele>1079.217041</ele>
        <time>2013-11-03T10:44:28Z</time>
      </trkpt>
      <trkpt lat="44.22163" lon="3.51528">
        <ele>1080.65918</ele>
        <time>2013-11-03T10:44:35Z</time>
      </trkpt>
      <trkpt lat="44.22148" lon="3.51512">
        <ele>1080.178467</ele>
        <time>2013-11-03T10:44:50Z</time>
      </trkpt>
      <trkpt lat="44.22126" lon="3.51503">
        <ele>1081.620361</ele>
        <time>2013-11-03T10:45:07Z</time>
      </trkpt>
      <trkpt lat="44.22107" lon="3.51496">
        <ele>1080.65918</ele>
        <time>2013-11-03T10:45:23Z</time>
      </trkpt>
      <trkpt lat="44.2209" lon="3.5148">
        <ele>1081.139893</ele>
        <time>2013-11-03T10:45:38Z</time>
      </trkpt>
      <trkpt lat="44.22086" lon="3.51472">
        <ele>1081.620361</ele>
        <time>2013-11-03T10:45:44Z</time>
      </trkpt>
      <trkpt lat="44.22085" lon="3.51459">
        <ele>1081.139893</ele>
        <time>2013-11-03T10:45:55Z</time>
      </trkpt>
      <trkpt lat="44.22084" lon="3.51457">
        <ele>1079.697754</ele>
        <time>2013-11-03T10:45:58Z</time>
      </trkpt>
      <trkpt lat="44.22083" lon="3.51454">
        <ele>1081.139893</ele>
        <time>2013-11-03T10:46:00Z</time>
      </trkpt>
      <trkpt lat="44.2208" lon="3.51437">
        <ele>1077.775146</ele>
        <time>2013-11-03T10:46:08Z</time>
      </trkpt>
      <trkpt lat="44.2208" lon="3.5143">
        <ele>1078.736572</ele>
        <time>2013-11-03T10:46:13Z</time>
      </trkpt>
      <trkpt lat="44.22082" lon="3.51425">
        <ele>1076.813965</ele>
        <time>2013-11-03T10:46:18Z</time>
      </trkpt>
      <trkpt lat="44.22081" lon="3.51413">
        <ele>1077.775146</ele>
        <time>2013-11-03T10:46:25Z</time>
      </trkpt>
      <trkpt lat="44.2208" lon="3.51406">
        <ele>1076.813965</ele>
        <time>2013-11-03T10:46:29Z</time>
      </trkpt>
      <trkpt lat="44.2208" lon="3.51403">
        <ele>1077.294678</ele>
        <time>2013-11-03T10:46:31Z</time>
      </trkpt>
      <trkpt lat="44.22078" lon="3.51397">
        <ele>1076.333252</ele>
        <time>2013-11-03T10:46:34Z</time>
      </trkpt>
      <trkpt lat="44.22072" lon="3.51377">
        <ele>1077.294678</ele>
        <time>2013-11-03T10:46:44Z</time>
      </trkpt>
      <trkpt lat="44.22064" lon="3.51356">
        <ele>1076.813965</ele>
        <time>2013-11-03T10:46:57Z</time>
      </trkpt>
      <trkpt lat="44.2206" lon="3.51336">
        <ele>1076.333252</ele>
        <time>2013-11-03T10:47:10Z</time>
      </trkpt>
      <trkpt lat="44.22056" lon="3.51314">
        <ele>1076.333252</ele>
        <time>2013-11-03T10:47:23Z</time>
      </trkpt>
      <trkpt lat="44.22049" lon="3.51293">
        <ele>1075.852539</ele>
        <time>2013-11-03T10:47:35Z</time>
      </trkpt>
      <trkpt lat="44.22043" lon="3.51268">
        <ele>1075.852539</ele>
        <time>2013-11-03T10:47:49Z</time>
      </trkpt>
      <trkpt lat="44.22041" lon="3.51257">
        <ele>1075.371826</ele>
        <time>2013-11-03T10:47:55Z</time>
      </trkpt>
      <trkpt lat="44.22038" lon="3.51246">
        <ele>1075.852539</ele>
        <time>2013-11-03T10:48:03Z</time>
      </trkpt>
      <trkpt lat="44.22034" lon="3.51239">
        <ele>1076.333252</ele>
        <time>2013-11-03T10:48:09Z</time>
      </trkpt>
      <trkpt lat="44.22034" lon="3.51239">
        <ele>1075.371826</ele>
        <time>2013-11-03T10:48:21Z</time>
      </trkpt>
      <trkpt lat="44.22034" lon="3.51236">
        <ele>1074.891357</ele>
        <time>2013-11-03T10:48:39Z</time>
      </trkpt>
      <trkpt lat="44.22033" lon="3.51232">
        <ele>1074.891357</ele>
        <time>2013-11-03T10:48:43Z</time>
      </trkpt>
      <trkpt lat="44.22025" lon="3.51214">
        <ele>1073.929932</ele>
        <time>2013-11-03T10:48:55Z</time>
      </trkpt>
      <trkpt lat="44.22023" lon="3.51202">
        <ele>1073.929932</ele>
        <time>2013-11-03T10:49:08Z</time>
      </trkpt>
      <trkpt lat="44.22026" lon="3.51201">
        <ele>1073.449463</ele>
        <time>2013-11-03T10:49:31Z</time>
      </trkpt>
      <trkpt lat="44.22024" lon="3.51194">
        <ele>1073.449463</ele>
        <time>2013-11-03T10:50:03Z</time>
      </trkpt>
      <trkpt lat="44.22022" lon="3.51192">
        <ele>1073.449463</ele>
        <time>2013-11-03T10:50:16Z</time>
      </trkpt>
      <trkpt lat="44.2202" lon="3.51198">
        <ele>1073.449463</ele>
        <time>2013-11-03T10:50:28Z</time>
      </trkpt>
      <trkpt lat="44.22022" lon="3.51195">
        <ele>1072.96875</ele>
        <time>2013-11-03T10:51:09Z</time>
      </trkpt>
      <trkpt lat="44.22022" lon="3.51192">
        <ele>1074.891357</ele>
        <time>2013-11-03T10:51:11Z</time>
      </trkpt>
      <trkpt lat="44.22022" lon="3.51187">
        <ele>1074.410645</ele>
        <time>2013-11-03T10:51:17Z</time>
      </trkpt>
      <trkpt lat="44.22022" lon="3.51187">
        <ele>1076.333252</ele>
        <time>2013-11-03T10:51:20Z</time>
      </trkpt>
      <trkpt lat="44.2202" lon="3.51191">
        <ele>1075.371826</ele>
        <time>2013-11-03T10:51:33Z</time>
      </trkpt>
      <trkpt lat="44.22018" lon="3.51188">
        <ele>1076.333252</ele>
        <time>2013-11-03T10:51:51Z</time>
      </trkpt>
      <trkpt lat="44.22021" lon="3.51165">
        <ele>1075.371826</ele>
        <time>2013-11-03T10:52:04Z</time>
      </trkpt>
      <trkpt lat="44.22019" lon="3.51145">
        <ele>1076.333252</ele>
        <time>2013-11-03T10:52:18Z</time>
      </trkpt>
      <trkpt lat="44.22011" lon="3.51143">
        <ele>1075.852539</ele>
        <time>2013-11-03T10:52:27Z</time>
      </trkpt>
      <trkpt lat="44.22008" lon="3.51142">
        <ele>1075.371826</ele>
        <time>2013-11-03T10:52:29Z</time>
      </trkpt>
      <trkpt lat="44.22002" lon="3.51139">
        <ele>1075.852539</ele>
        <time>2013-11-03T10:52:34Z</time>
      </trkpt>
      <trkpt lat="44.21998" lon="3.51134">
        <ele>1074.410645</ele>
        <time>2013-11-03T10:52:39Z</time>
      </trkpt>
      <trkpt lat="44.21992" lon="3.51131">
        <ele>1073.929932</ele>
        <time>2013-11-03T10:52:45Z</time>
      </trkpt>
      <trkpt lat="44.21983" lon="3.5113">
        <ele>1074.410645</ele>
        <time>2013-11-03T10:52:58Z</time>
      </trkpt>
      <trkpt lat="44.21972" lon="3.51129">
        <ele>1074.891357</ele>
        <time>2013-11-03T10:53:07Z</time>
      </trkpt>
      <trkpt lat="44.21968" lon="3.51123">
        <ele>1075.371826</ele>
        <time>2013-11-03T10:53:20Z</time>
      </trkpt>
      <trkpt lat="44.21968" lon="3.51123">
        <ele>1075.852539</ele>
        <time>2013-11-03T10:53:30Z</time>
      </trkpt>
      <trkpt lat="44.21969" lon="3.51122">
        <ele>1075.852539</ele>
        <time>2013-11-03T10:53:55Z</time>
      </trkpt>
      <trkpt lat="44.21969" lon="3.51124">
        <ele>1075.371826</ele>
        <time>2013-11-03T10:54:21Z</time>
      </trkpt>
      <trkpt lat="44.21971" lon="3.51123">
        <ele>1074.410645</ele>
        <time>2013-11-03T10:54:39Z</time>
      </trkpt>
      <trkpt lat="44.21961" lon="3.51115">
        <ele>1074.410645</ele>
        <time>2013-11-03T10:55:01Z</time>
      </trkpt>
      <trkpt lat="44.21944" lon="3.51115">
        <ele>1075.371826</ele>
        <time>2013-11-03T10:55:14Z</time>
      </trkpt>
      <trkpt lat="44.21932" lon="3.51115">
        <ele>1074.891357</ele>
        <time>2013-11-03T10:55:29Z</time>
      </trkpt>
      <trkpt lat="44.21933" lon="3.51114">
        <ele>1074.410645</ele>
        <time>2013-11-03T10:55:45Z</time>
      </trkpt>
      <trkpt lat="44.21926" lon="3.51116">
        <ele>1074.891357</ele>
        <time>2013-11-03T10:55:51Z</time>
      </trkpt>
      <trkpt lat="44.21915" lon="3.51116">
        <ele>1073.929932</ele>
        <time>2013-11-03T10:56:00Z</time>
      </trkpt>
      <trkpt lat="44.21905" lon="3.51114">
        <ele>1076.813965</ele>
        <time>2013-11-03T10:56:09Z</time>
      </trkpt>
      <trkpt lat="44.219" lon="3.5111">
        <ele>1076.813965</ele>
        <time>2013-11-03T10:56:14Z</time>
      </trkpt>
      <trkpt lat="44.21887" lon="3.51116">
        <ele>1077.775146</ele>
        <time>2013-11-03T10:56:26Z</time>
      </trkpt>
      <trkpt lat="44.21877" lon="3.5111">
        <ele>1077.294678</ele>
        <time>2013-11-03T10:56:35Z</time>
      </trkpt>
      <trkpt lat="44.21874" lon="3.51106">
        <ele>1079.697754</ele>
        <time>2013-11-03T10:56:46Z</time>
      </trkpt>
      <trkpt lat="44.21873" lon="3.51106">
        <ele>1076.333252</ele>
        <time>2013-11-03T10:56:48Z</time>
      </trkpt>
      <trkpt lat="44.21871" lon="3.51105">
        <ele>1076.813965</ele>
        <time>2013-11-03T10:57:09Z</time>
      </trkpt>
      <trkpt lat="44.2187" lon="3.51102">
        <ele>1077.775146</ele>
        <time>2013-11-03T10:57:12Z</time>
      </trkpt>
      <trkpt lat="44.21866" lon="3.51084">
        <ele>1079.217041</ele>
        <time>2013-11-03T10:57:22Z</time>
      </trkpt>
      <trkpt lat="44.21858" lon="3.51076">
        <ele>1077.775146</ele>
        <time>2013-11-03T10:57:33Z</time>
      </trkpt>
      <trkpt lat="44.21851" lon="3.51076">
        <ele>1076.813965</ele>
        <time>2013-11-03T10:57:45Z</time>
      </trkpt>
      <trkpt lat="44.21848" lon="3.51079">
        <ele>1077.775146</ele>
        <time>2013-11-03T10:57:54Z</time>
      </trkpt>
      <trkpt lat="44.21845" lon="3.51079">
        <ele>1077.775146</ele>
        <time>2013-11-03T10:57:58Z</time>
      </trkpt>
      <trkpt lat="44.21841" lon="3.51075">
        <ele>1078.255859</ele>
        <time>2013-11-03T10:58:08Z</time>
      </trkpt>
      <trkpt lat="44.21843" lon="3.51073">
        <ele>1078.255859</ele>
        <time>2013-11-03T10:58:39Z</time>
      </trkpt>
      <trkpt lat="44.21846" lon="3.51059">
        <ele>1081.620361</ele>
        <time>2013-11-03T10:59:14Z</time>
      </trkpt>
      <trkpt lat="44.21847" lon="3.51059">
        <ele>1081.620361</ele>
        <time>2013-11-03T10:59:15Z</time>
      </trkpt>
      <trkpt lat="44.21848" lon="3.51059">
        <ele>1078.255859</ele>
        <time>2013-11-03T10:59:17Z</time>
      </trkpt>
      <trkpt lat="44.21848" lon="3.5106">
        <ele>1078.255859</ele>
        <time>2013-11-03T10:59:18Z</time>
      </trkpt>
      <trkpt lat="44.21846" lon="3.51068">
        <ele>1078.255859</ele>
        <time>2013-11-03T10:59:45Z</time>
      </trkpt>
      <trkpt lat="44.21843" lon="3.51073">
        <ele>1077.775146</ele>
        <time>2013-11-03T11:00:03Z</time>
      </trkpt>
      <trkpt lat="44.21843" lon="3.51071">
        <ele>1078.255859</ele>
        <time>2013-11-03T11:00:10Z</time>
      </trkpt>
      <trkpt lat="44.21845" lon="3.51068">
        <ele>1079.217041</ele>
        <time>2013-11-03T11:00:39Z</time>
      </trkpt>
      <trkpt lat="44.21843" lon="3.51072">
        <ele>1079.217041</ele>
        <time>2013-11-03T11:01:06Z</time>
      </trkpt>
      <trkpt lat="44.21845" lon="3.51068">
        <ele>1079.697754</ele>
        <time>2013-11-03T11:03:26Z</time>
      </trkpt>
      <trkpt lat="44.21845" lon="3.51069">
        <ele>1076.333252</ele>
        <time>2013-11-03T11:04:39Z</time>
      </trkpt>
      <trkpt lat="44.21845" lon="3.51069">
        <ele>1079.697754</ele>
        <time>2013-11-03T11:07:46Z</time>
      </trkpt>
      <trkpt lat="44.21845" lon="3.51068">
        <ele>1077.775146</ele>
        <time>2013-11-03T11:12:51Z</time>
      </trkpt>
      <trkpt lat="44.21845" lon="3.51068">
        <ele>1075.852539</ele>
        <time>2013-11-03T11:13:54Z</time>
      </trkpt>
      <trkpt lat="44.21845" lon="3.51069">
        <ele>1079.217041</ele>
        <time>2013-11-03T11:18:40Z</time>
      </trkpt>
      <trkpt lat="44.21845" lon="3.51069">
        <ele>1079.217041</ele>
        <time>2013-11-03T11:20:11Z</time>
      </trkpt>
      <trkpt lat="44.21845" lon="3.51069">
        <ele>1076.333252</ele>
        <time>2013-11-03T11:25:41Z</time>
      </trkpt>
      <trkpt lat="44.21846" lon="3.51069">
        <ele>1077.294678</ele>
        <time>2013-11-03T11:27:57Z</time>
      </trkpt>
      <trkpt lat="44.21846" lon="3.51068">
        <ele>1076.813965</ele>
        <time>2013-11-03T11:28:21Z</time>
      </trkpt>
      <trkpt lat="44.21841" lon="3.51075">
        <ele>1076.813965</ele>
        <time>2013-11-03T11:31:55Z</time>
      </trkpt>
      <trkpt lat="44.21841" lon="3.51075">
        <ele>1079.217041</ele>
        <time>2013-11-03T11:32:32Z</time>
      </trkpt>
      <trkpt lat="44.21841" lon="3.51075">
        <ele>1076.333252</ele>
        <time>2013-11-03T11:33:22Z</time>
      </trkpt>
      <trkpt lat="44.21841" lon="3.51075">
        <ele>1076.813965</ele>
        <time>2013-11-03T11:33:58Z</time>
      </trkpt>
      <trkpt lat="44.21841" lon="3.51075">
        <ele>1079.217041</ele>
        <time>2013-11-03T11:34:02Z</time>
      </trkpt>
      <trkpt lat="44.21837" lon="3.51074">
        <ele>1077.775146</ele>
        <time>2013-11-03T11:34:58Z</time>
      </trkpt>
      <trkpt lat="44.2182" lon="3.51066">
        <ele>1078.736572</ele>
        <time>2013-11-03T11:35:15Z</time>
      </trkpt>
      <trkpt lat="44.21819" lon="3.51065">
        <ele>1078.736572</ele>
        <time>2013-11-03T11:35:16Z</time>
      </trkpt>
      <trkpt lat="44.21811" lon="3.51067">
        <ele>1079.217041</ele>
        <time>2013-11-03T11:35:22Z</time>
      </trkpt>
      <trkpt lat="44.21806" lon="3.51063">
        <ele>1079.697754</ele>
        <time>2013-11-03T11:35:28Z</time>
      </trkpt>
      <trkpt lat="44.21801" lon="3.51065">
        <ele>1080.65918</ele>
        <time>2013-11-03T11:35:42Z</time>
      </trkpt>
      <trkpt lat="44.21802" lon="3.51065">
        <ele>1077.775146</ele>
        <time>2013-11-03T11:35:50Z</time>
      </trkpt>
      <trkpt lat="44.21801" lon="3.51064">
        <ele>1081.620361</ele>
        <time>2013-11-03T11:35:51Z</time>
      </trkpt>
      <trkpt lat="44.218" lon="3.51063">
        <ele>1081.139893</ele>
        <time>2013-11-03T11:35:52Z</time>
      </trkpt>
      <trkpt lat="44.21785" lon="3.51055">
        <ele>1081.620361</ele>
        <time>2013-11-03T11:36:09Z</time>
      </trkpt>
      <trkpt lat="44.2177" lon="3.5105">
        <ele>1082.101074</ele>
        <time>2013-11-03T11:36:24Z</time>
      </trkpt>
      <trkpt lat="44.2177" lon="3.5105">
        <ele>1081.620361</ele>
        <time>2013-11-03T11:36:25Z</time>
      </trkpt>
      <trkpt lat="44.21758" lon="3.51048">
        <ele>1083.062256</ele>
        <time>2013-11-03T11:36:38Z</time>
      </trkpt>
      <trkpt lat="44.2175" lon="3.51044">
        <ele>1084.023926</ele>
        <time>2013-11-03T11:36:46Z</time>
      </trkpt>
      <trkpt lat="44.21738" lon="3.51035">
        <ele>1085.46582</ele>
        <time>2013-11-03T11:37:02Z</time>
      </trkpt>
      <trkpt lat="44.21727" lon="3.51029">
        <ele>1088.349854</ele>
        <time>2013-11-03T11:37:13Z</time>
      </trkpt>
      <trkpt lat="44.21726" lon="3.51028">
        <ele>1088.349854</ele>
        <time>2013-11-03T11:37:14Z</time>
      </trkpt>
      <trkpt lat="44.21721" lon="3.51025">
        <ele>1088.830566</ele>
        <time>2013-11-03T11:37:19Z</time>
      </trkpt>
      <trkpt lat="44.2171" lon="3.51018">
        <ele>1089.311035</ele>
        <time>2013-11-03T11:37:30Z</time>
      </trkpt>
      <trkpt lat="44.21708" lon="3.51013">
        <ele>1089.311035</ele>
        <time>2013-11-03T11:37:34Z</time>
      </trkpt>
      <trkpt lat="44.21703" lon="3.51002">
        <ele>1089.311035</ele>
        <time>2013-11-03T11:37:47Z</time>
      </trkpt>
      <trkpt lat="44.21702" lon="3.50999">
        <ele>1089.311035</ele>
        <time>2013-11-03T11:37:49Z</time>
      </trkpt>
      <trkpt lat="44.21702" lon="3.50996">
        <ele>1089.791748</ele>
        <time>2013-11-03T11:37:51Z</time>
      </trkpt>
      <trkpt lat="44.21701" lon="3.50988">
        <ele>1092.195068</ele>
        <time>2013-11-03T11:38:01Z</time>
      </trkpt>
      <trkpt lat="44.21702" lon="3.50982">
        <ele>1094.598145</ele>
        <time>2013-11-03T11:38:06Z</time>
      </trkpt>
      <trkpt lat="44.21702" lon="3.50976">
        <ele>1095.55957</ele>
        <time>2013-11-03T11:38:11Z</time>
      </trkpt>
      <trkpt lat="44.217" lon="3.50974">
        <ele>1094.598145</ele>
        <time>2013-11-03T11:38:14Z</time>
      </trkpt>
      <trkpt lat="44.21696" lon="3.5097">
        <ele>1096.040283</ele>
        <time>2013-11-03T11:38:20Z</time>
      </trkpt>
      <trkpt lat="44.21691" lon="3.50962">
        <ele>1097.001465</ele>
        <time>2013-11-03T11:38:33Z</time>
      </trkpt>
      <trkpt lat="44.21687" lon="3.50956">
        <ele>1096.520996</ele>
        <time>2013-11-03T11:38:40Z</time>
      </trkpt>
      <trkpt lat="44.21678" lon="3.50952">
        <ele>1098.924072</ele>
        <time>2013-11-03T11:38:50Z</time>
      </trkpt>
      <trkpt lat="44.21676" lon="3.50949">
        <ele>1100.366455</ele>
        <time>2013-11-03T11:39:02Z</time>
      </trkpt>
      <trkpt lat="44.21675" lon="3.50947">
        <ele>1098.924072</ele>
        <time>2013-11-03T11:39:28Z</time>
      </trkpt>
      <trkpt lat="44.21675" lon="3.50951">
        <ele>1099.885498</ele>
        <time>2013-11-03T11:39:49Z</time>
      </trkpt>
      <trkpt lat="44.21675" lon="3.50952">
        <ele>1101.327637</ele>
        <time>2013-11-03T11:40:13Z</time>
      </trkpt>
      <trkpt lat="44.21675" lon="3.50952">
        <ele>1099.404785</ele>
        <time>2013-11-03T11:40:16Z</time>
      </trkpt>
      <trkpt lat="44.21679" lon="3.50951">
        <ele>1099.885498</ele>
        <time>2013-11-03T11:40:28Z</time>
      </trkpt>
      <trkpt lat="44.21667" lon="3.50944">
        <ele>1100.846924</ele>
        <time>2013-11-03T11:40:51Z</time>
      </trkpt>
      <trkpt lat="44.21665" lon="3.50941">
        <ele>1100.846924</ele>
        <time>2013-11-03T11:40:56Z</time>
      </trkpt>
      <trkpt lat="44.21663" lon="3.50934">
        <ele>1102.288818</ele>
        <time>2013-11-03T11:41:01Z</time>
      </trkpt>
      <trkpt lat="44.21661" lon="3.50931">
        <ele>1103.730957</ele>
        <time>2013-11-03T11:41:04Z</time>
      </trkpt>
      <trkpt lat="44.21658" lon="3.50918">
        <ele>1101.80835</ele>
        <time>2013-11-03T11:41:12Z</time>
      </trkpt>
      <trkpt lat="44.21658" lon="3.50916">
        <ele>1102.769531</ele>
        <time>2013-11-03T11:41:13Z</time>
      </trkpt>
      <trkpt lat="44.21652" lon="3.50912">
        <ele>1102.769531</ele>
        <time>2013-11-03T11:41:22Z</time>
      </trkpt>
      <trkpt lat="44.21646" lon="3.50914">
        <ele>1102.288818</ele>
        <time>2013-11-03T11:41:32Z</time>
      </trkpt>
      <trkpt lat="44.21646" lon="3.50914">
        <ele>1101.80835</ele>
        <time>2013-11-03T11:41:33Z</time>
      </trkpt>
      <trkpt lat="44.21648" lon="3.50917">
        <ele>1102.288818</ele>
        <time>2013-11-03T11:41:48Z</time>
      </trkpt>
      <trkpt lat="44.21645" lon="3.50914">
        <ele>1103.250244</ele>
        <time>2013-11-03T11:42:14Z</time>
      </trkpt>
      <trkpt lat="44.21641" lon="3.50909">
        <ele>1103.250244</ele>
        <time>2013-11-03T11:42:21Z</time>
      </trkpt>
      <trkpt lat="44.21622" lon="3.50901">
        <ele>1101.327637</ele>
        <time>2013-11-03T11:42:36Z</time>
      </trkpt>
      <trkpt lat="44.21607" lon="3.50895">
        <ele>1098.443359</ele>
        <time>2013-11-03T11:42:47Z</time>
      </trkpt>
      <trkpt lat="44.21605" lon="3.50894">
        <ele>1097.482178</ele>
        <time>2013-11-03T11:42:49Z</time>
      </trkpt>
      <trkpt lat="44.21601" lon="3.5089">
        <ele>1099.885498</ele>
        <time>2013-11-03T11:42:54Z</time>
      </trkpt>
      <trkpt lat="44.21603" lon="3.50894">
        <ele>1099.885498</ele>
        <time>2013-11-03T11:43:03Z</time>
      </trkpt>
      <trkpt lat="44.21603" lon="3.50894">
        <ele>1101.80835</ele>
        <time>2013-11-03T11:43:09Z</time>
      </trkpt>
      <trkpt lat="44.216" lon="3.50893">
        <ele>1098.924072</ele>
        <time>2013-11-03T11:43:16Z</time>
      </trkpt>
      <trkpt lat="44.216" lon="3.50893">
        <ele>1101.327637</ele>
        <time>2013-11-03T11:43:19Z</time>
      </trkpt>
      <trkpt lat="44.21601" lon="3.50892">
        <ele>1101.80835</ele>
        <time>2013-11-03T11:43:23Z</time>
      </trkpt>
      <trkpt lat="44.216" lon="3.50894">
        <ele>1098.924072</ele>
        <time>2013-11-03T11:43:37Z</time>
      </trkpt>
      <trkpt lat="44.21602" lon="3.50894">
        <ele>1099.885498</ele>
        <time>2013-11-03T11:43:47Z</time>
      </trkpt>
      <trkpt lat="44.21599" lon="3.50886">
        <ele>1097.482178</ele>
        <time>2013-11-03T11:44:00Z</time>
      </trkpt>
      <trkpt lat="44.21601" lon="3.50884">
        <ele>1098.443359</ele>
        <time>2013-11-03T11:44:12Z</time>
      </trkpt>
      <trkpt lat="44.21601" lon="3.50879">
        <ele>1099.404785</ele>
        <time>2013-11-03T11:44:34Z</time>
      </trkpt>
      <trkpt lat="44.21593" lon="3.5087">
        <ele>1098.443359</ele>
        <time>2013-11-03T11:44:44Z</time>
      </trkpt>
      <trkpt lat="44.21592" lon="3.50867">
        <ele>1099.404785</ele>
        <time>2013-11-03T11:44:46Z</time>
      </trkpt>
      <trkpt lat="44.21583" lon="3.50855">
        <ele>1100.366455</ele>
        <time>2013-11-03T11:44:57Z</time>
      </trkpt>
      <trkpt lat="44.21581" lon="3.50852">
        <ele>1101.327637</ele>
        <time>2013-11-03T11:44:59Z</time>
      </trkpt>
      <trkpt lat="44.2157" lon="3.50835">
        <ele>1100.846924</ele>
        <time>2013-11-03T11:45:11Z</time>
      </trkpt>
      <trkpt lat="44.21564" lon="3.50823">
        <ele>1103.730957</ele>
        <time>2013-11-03T11:45:19Z</time>
      </trkpt>
      <trkpt lat="44.21563" lon="3.50822">
        <ele>1102.769531</ele>
        <time>2013-11-03T11:45:20Z</time>
      </trkpt>
      <trkpt lat="44.2156" lon="3.50819">
        <ele>1098.924072</ele>
        <time>2013-11-03T11:45:23Z</time>
      </trkpt>
      <trkpt lat="44.21556" lon="3.50814">
        <ele>1099.404785</ele>
        <time>2013-11-03T11:45:26Z</time>
      </trkpt>
      <trkpt lat="44.21548" lon="3.50803">
        <ele>1098.924072</ele>
        <time>2013-11-03T11:45:39Z</time>
      </trkpt>
      <trkpt lat="44.21546" lon="3.50798">
        <ele>1098.924072</ele>
        <time>2013-11-03T11:45:45Z</time>
      </trkpt>
      <trkpt lat="44.21533" lon="3.50788">
        <ele>1098.443359</ele>
        <time>2013-11-03T11:45:57Z</time>
      </trkpt>
      <trkpt lat="44.21517" lon="3.50786">
        <ele>1098.924072</ele>
        <time>2013-11-03T11:46:10Z</time>
      </trkpt>
      <trkpt lat="44.21499" lon="3.50778">
        <ele>1099.404785</ele>
        <time>2013-11-03T11:46:28Z</time>
      </trkpt>
      <trkpt lat="44.21493" lon="3.50774">
        <ele>1102.769531</ele>
        <time>2013-11-03T11:46:34Z</time>
      </trkpt>
      <trkpt lat="44.21478" lon="3.50762">
        <ele>1099.404785</ele>
        <time>2013-11-03T11:46:50Z</time>
      </trkpt>
      <trkpt lat="44.21476" lon="3.50761">
        <ele>1099.404785</ele>
        <time>2013-11-03T11:46:51Z</time>
      </trkpt>
      <trkpt lat="44.21464" lon="3.50762">
        <ele>1103.250244</ele>
        <time>2013-11-03T11:47:01Z</time>
      </trkpt>
      <trkpt lat="44.21464" lon="3.50762">
        <ele>1102.288818</ele>
        <time>2013-11-03T11:47:02Z</time>
      </trkpt>
      <trkpt lat="44.21464" lon="3.50762">
        <ele>1102.288818</ele>
        <time>2013-11-03T11:47:03Z</time>
      </trkpt>
      <trkpt lat="44.21459" lon="3.5076">
        <ele>1101.80835</ele>
        <time>2013-11-03T11:47:08Z</time>
      </trkpt>
      <trkpt lat="44.21452" lon="3.50757">
        <ele>1104.21167</ele>
        <time>2013-11-03T11:47:15Z</time>
      </trkpt>
      <trkpt lat="44.21448" lon="3.50756">
        <ele>1105.172852</ele>
        <time>2013-11-03T11:47:24Z</time>
      </trkpt>
      <trkpt lat="44.21444" lon="3.50758">
        <ele>1107.095459</ele>
        <time>2013-11-03T11:47:36Z</time>
      </trkpt>
      <trkpt lat="44.21442" lon="3.50757">
        <ele>1105.653564</ele>
        <time>2013-11-03T11:47:43Z</time>
      </trkpt>
      <trkpt lat="44.21431" lon="3.50753">
        <ele>1107.095459</ele>
        <time>2013-11-03T11:47:54Z</time>
      </trkpt>
      <trkpt lat="44.21421" lon="3.50752">
        <ele>1105.653564</ele>
        <time>2013-11-03T11:48:01Z</time>
      </trkpt>
      <trkpt lat="44.21407" lon="3.50748">
        <ele>1107.095459</ele>
        <time>2013-11-03T11:48:14Z</time>
      </trkpt>
      <trkpt lat="44.21406" lon="3.50748">
        <ele>1106.614746</ele>
        <time>2013-11-03T11:48:15Z</time>
      </trkpt>
      <trkpt lat="44.21402" lon="3.50745">
        <ele>1107.576172</ele>
        <time>2013-11-03T11:48:19Z</time>
      </trkpt>
      <trkpt lat="44.21396" lon="3.50733">
        <ele>1108.056885</ele>
        <time>2013-11-03T11:48:32Z</time>
      </trkpt>
      <trkpt lat="44.21394" lon="3.50729">
        <ele>1107.095459</ele>
        <time>2013-11-03T11:48:46Z</time>
      </trkpt>
      <trkpt lat="44.21394" lon="3.50727">
        <ele>1108.056885</ele>
        <time>2013-11-03T11:48:48Z</time>
      </trkpt>
      <trkpt lat="44.21384" lon="3.50708">
        <ele>1107.095459</ele>
        <time>2013-11-03T11:49:03Z</time>
      </trkpt>
      <trkpt lat="44.21382" lon="3.50707">
        <ele>1109.018066</ele>
        <time>2013-11-03T11:49:14Z</time>
      </trkpt>
      <trkpt lat="44.21383" lon="3.50708">
        <ele>1108.537354</ele>
        <time>2013-11-03T11:49:37Z</time>
      </trkpt>
      <trkpt lat="44.21381" lon="3.50708">
        <ele>1104.692139</ele>
        <time>2013-11-03T11:49:51Z</time>
      </trkpt>
      <trkpt lat="44.21381" lon="3.50708">
        <ele>1104.692139</ele>
        <time>2013-11-03T11:49:52Z</time>
      </trkpt>
      <trkpt lat="44.21381" lon="3.50708">
        <ele>1103.250244</ele>
        <time>2013-11-03T11:49:54Z</time>
      </trkpt>
      <trkpt lat="44.21381" lon="3.50709">
        <ele>1107.095459</ele>
        <time>2013-11-03T11:49:56Z</time>
      </trkpt>
      <trkpt lat="44.21381" lon="3.50708">
        <ele>1106.134033</ele>
        <time>2013-11-03T11:49:57Z</time>
      </trkpt>
      <trkpt lat="44.21382" lon="3.50708">
        <ele>1105.172852</ele>
        <time>2013-11-03T11:49:59Z</time>
      </trkpt>
      <trkpt lat="44.21383" lon="3.50707">
        <ele>1104.692139</ele>
        <time>2013-11-03T11:50:06Z</time>
      </trkpt>
      <trkpt lat="44.21381" lon="3.50702">
        <ele>1106.134033</ele>
        <time>2013-11-03T11:50:32Z</time>
      </trkpt>
      <trkpt lat="44.21382" lon="3.50693">
        <ele>1107.095459</ele>
        <time>2013-11-03T11:50:42Z</time>
      </trkpt>
      <trkpt lat="44.21383" lon="3.50685">
        <ele>1106.134033</ele>
        <time>2013-11-03T11:50:48Z</time>
      </trkpt>
      <trkpt lat="44.21386" lon="3.5066">
        <ele>1105.172852</ele>
        <time>2013-11-03T11:51:05Z</time>
      </trkpt>
      <trkpt lat="44.21387" lon="3.50657">
        <ele>1106.134033</ele>
        <time>2013-11-03T11:51:07Z</time>
      </trkpt>
      <trkpt lat="44.21387" lon="3.5065">
        <ele>1107.095459</ele>
        <time>2013-11-03T11:51:20Z</time>
      </trkpt>
      <trkpt lat="44.21386" lon="3.50649">
        <ele>1105.172852</ele>
        <time>2013-11-03T11:51:37Z</time>
      </trkpt>
      <trkpt lat="44.21385" lon="3.50651">
        <ele>1106.134033</ele>
        <time>2013-11-03T11:51:39Z</time>
      </trkpt>
      <trkpt lat="44.21385" lon="3.50649">
        <ele>1104.21167</ele>
        <time>2013-11-03T11:51:54Z</time>
      </trkpt>
      <trkpt lat="44.21388" lon="3.50631">
        <ele>1105.653564</ele>
        <time>2013-11-03T11:52:04Z</time>
      </trkpt>
      <trkpt lat="44.21395" lon="3.50606">
        <ele>1104.21167</ele>
        <time>2013-11-03T11:52:23Z</time>
      </trkpt>
      <trkpt lat="44.214" lon="3.50601">
        <ele>1107.576172</ele>
        <time>2013-11-03T11:52:31Z</time>
      </trkpt>
      <trkpt lat="44.214" lon="3.50599">
        <ele>1104.21167</ele>
        <time>2013-11-03T11:52:32Z</time>
      </trkpt>
      <trkpt lat="44.21401" lon="3.50597">
        <ele>1105.653564</ele>
        <time>2013-11-03T11:52:33Z</time>
      </trkpt>
      <trkpt lat="44.21407" lon="3.50583">
        <ele>1108.537354</ele>
        <time>2013-11-03T11:52:44Z</time>
      </trkpt>
      <trkpt lat="44.21408" lon="3.50579">
        <ele>1106.614746</ele>
        <time>2013-11-03T11:52:47Z</time>
      </trkpt>
      <trkpt lat="44.21412" lon="3.50569">
        <ele>1105.172852</ele>
        <time>2013-11-03T11:52:55Z</time>
      </trkpt>
      <trkpt lat="44.21414" lon="3.5056">
        <ele>1106.134033</ele>
        <time>2013-11-03T11:53:02Z</time>
      </trkpt>
      <trkpt lat="44.21416" lon="3.50553">
        <ele>1106.614746</ele>
        <time>2013-11-03T11:53:08Z</time>
      </trkpt>
      <trkpt lat="44.21417" lon="3.50547">
        <ele>1108.056885</ele>
        <time>2013-11-03T11:53:13Z</time>
      </trkpt>
      <trkpt lat="44.21425" lon="3.50527">
        <ele>1105.653564</ele>
        <time>2013-11-03T11:53:28Z</time>
      </trkpt>
      <trkpt lat="44.21426" lon="3.50525">
        <ele>1109.498779</ele>
        <time>2013-11-03T11:53:30Z</time>
      </trkpt>
      <trkpt lat="44.21427" lon="3.50523">
        <ele>1109.498779</ele>
        <time>2013-11-03T11:53:31Z</time>
      </trkpt>
      <trkpt lat="44.21427" lon="3.50521">
        <ele>1107.095459</ele>
        <time>2013-11-03T11:53:32Z</time>
      </trkpt>
      <trkpt lat="44.2143" lon="3.50516">
        <ele>1108.056885</ele>
        <time>2013-11-03T11:53:36Z</time>
      </trkpt>
      <trkpt lat="44.21431" lon="3.50514">
        <ele>1108.056885</ele>
        <time>2013-11-03T11:53:39Z</time>
      </trkpt>
      <trkpt lat="44.21439" lon="3.50495">
        <ele>1107.576172</ele>
        <time>2013-11-03T11:53:51Z</time>
      </trkpt>
      <trkpt lat="44.21441" lon="3.50489">
        <ele>1108.056885</ele>
        <time>2013-11-03T11:53:55Z</time>
      </trkpt>
      <trkpt lat="44.21444" lon="3.5048">
        <ele>1106.614746</ele>
        <time>2013-11-03T11:54:00Z</time>
      </trkpt>
      <trkpt lat="44.21443" lon="3.50465">
        <ele>1107.576172</ele>
        <time>2013-11-03T11:54:14Z</time>
      </trkpt>
      <trkpt lat="44.21446" lon="3.50452">
        <ele>1106.134033</ele>
        <time>2013-11-03T11:54:22Z</time>
      </trkpt>
      <trkpt lat="44.21447" lon="3.50449">
        <ele>1108.537354</ele>
        <time>2013-11-03T11:54:24Z</time>
      </trkpt>
      <trkpt lat="44.21447" lon="3.50442">
        <ele>1108.056885</ele>
        <time>2013-11-03T11:54:30Z</time>
      </trkpt>
      <trkpt lat="44.21442" lon="3.50443">
        <ele>1107.095459</ele>
        <time>2013-11-03T11:54:43Z</time>
      </trkpt>
      <trkpt lat="44.21441" lon="3.50443">
        <ele>1108.537354</ele>
        <time>2013-11-03T11:55:09Z</time>
      </trkpt>
      <trkpt lat="44.21441" lon="3.50443">
        <ele>1108.056885</ele>
        <time>2013-11-03T11:55:13Z</time>
      </trkpt>
      <trkpt lat="44.21441" lon="3.50444">
        <ele>1108.537354</ele>
        <time>2013-11-03T11:55:33Z</time>
      </trkpt>
      <trkpt lat="44.21443" lon="3.50443">
        <ele>1107.095459</ele>
        <time>2013-11-03T11:55:42Z</time>
      </trkpt>
      <trkpt lat="44.21444" lon="3.50429">
        <ele>1108.537354</ele>
        <time>2013-11-03T11:55:50Z</time>
      </trkpt>
      <trkpt lat="44.21444" lon="3.50412">
        <ele>1108.537354</ele>
        <time>2013-11-03T11:56:01Z</time>
      </trkpt>
      <trkpt lat="44.21445" lon="3.50405">
        <ele>1108.056885</ele>
        <time>2013-11-03T11:56:05Z</time>
      </trkpt>
      <trkpt lat="44.21445" lon="3.50398">
        <ele>1108.537354</ele>
        <time>2013-11-03T11:56:10Z</time>
      </trkpt>
      <trkpt lat="44.21451" lon="3.50388">
        <ele>1109.979248</ele>
        <time>2013-11-03T11:56:17Z</time>
      </trkpt>
      <trkpt lat="44.21452" lon="3.50382">
        <ele>1109.018066</ele>
        <time>2013-11-03T11:56:21Z</time>
      </trkpt>
      <trkpt lat="44.21461" lon="3.50357">
        <ele>1108.537354</ele>
        <time>2013-11-03T11:56:38Z</time>
      </trkpt>
      <trkpt lat="44.21464" lon="3.5035">
        <ele>1111.9021</ele>
        <time>2013-11-03T11:56:43Z</time>
      </trkpt>
      <trkpt lat="44.21465" lon="3.50348">
        <ele>1110.940674</ele>
        <time>2013-11-03T11:56:44Z</time>
      </trkpt>
      <trkpt lat="44.21472" lon="3.50331">
        <ele>1108.537354</ele>
        <time>2013-11-03T11:56:56Z</time>
      </trkpt>
      <trkpt lat="44.21476" lon="3.50327">
        <ele>1110.459961</ele>
        <time>2013-11-03T11:56:59Z</time>
      </trkpt>
      <trkpt lat="44.21484" lon="3.50316">
        <ele>1109.498779</ele>
        <time>2013-11-03T11:57:07Z</time>
      </trkpt>
      <trkpt lat="44.2149" lon="3.50308">
        <ele>1110.940674</ele>
        <time>2013-11-03T11:57:13Z</time>
      </trkpt>
      <trkpt lat="44.21494" lon="3.50294">
        <ele>1108.056885</ele>
        <time>2013-11-03T11:57:25Z</time>
      </trkpt>
      <trkpt lat="44.21494" lon="3.50293">
        <ele>1109.018066</ele>
        <time>2013-11-03T11:57:26Z</time>
      </trkpt>
      <trkpt lat="44.21495" lon="3.50287">
        <ele>1108.056885</ele>
        <time>2013-11-03T11:57:30Z</time>
      </trkpt>
      <trkpt lat="44.21501" lon="3.50278">
        <ele>1108.537354</ele>
        <time>2013-11-03T11:57:37Z</time>
      </trkpt>
      <trkpt lat="44.21507" lon="3.50268">
        <ele>1109.018066</ele>
        <time>2013-11-03T11:57:46Z</time>
      </trkpt>
      <trkpt lat="44.21516" lon="3.50259">
        <ele>1109.979248</ele>
        <time>2013-11-03T11:57:57Z</time>
      </trkpt>
      <trkpt lat="44.21529" lon="3.5024">
        <ele>1108.056885</ele>
        <time>2013-11-03T11:58:12Z</time>
      </trkpt>
      <trkpt lat="44.21533" lon="3.50235">
        <ele>1109.018066</ele>
        <time>2013-11-03T11:58:15Z</time>
      </trkpt>
      <trkpt lat="44.2154" lon="3.50225">
        <ele>1108.056885</ele>
        <time>2013-11-03T11:58:22Z</time>
      </trkpt>
      <trkpt lat="44.21546" lon="3.50215">
        <ele>1109.018066</ele>
        <time>2013-11-03T11:58:35Z</time>
      </trkpt>
      <trkpt lat="44.21549" lon="3.50206">
        <ele>1109.979248</ele>
        <time>2013-11-03T11:58:42Z</time>
      </trkpt>
      <trkpt lat="44.21552" lon="3.50202">
        <ele>1109.979248</ele>
        <time>2013-11-03T11:58:45Z</time>
      </trkpt>
      <trkpt lat="44.21552" lon="3.50198">
        <ele>1110.940674</ele>
        <time>2013-11-03T11:58:48Z</time>
      </trkpt>
      <trkpt lat="44.21558" lon="3.50182">
        <ele>1112.382568</ele>
        <time>2013-11-03T11:58:59Z</time>
      </trkpt>
      <trkpt lat="44.21562" lon="3.50177">
        <ele>1114.785889</ele>
        <time>2013-11-03T11:59:04Z</time>
      </trkpt>
      <trkpt lat="44.21569" lon="3.50167">
        <ele>1115.266602</ele>
        <time>2013-11-03T11:59:16Z</time>
      </trkpt>
      <trkpt lat="44.21572" lon="3.50164">
        <ele>1115.266602</ele>
        <time>2013-11-03T11:59:33Z</time>
      </trkpt>
      <trkpt lat="44.21576" lon="3.5016">
        <ele>1117.189453</ele>
        <time>2013-11-03T11:59:37Z</time>
      </trkpt>
      <trkpt lat="44.21577" lon="3.50159">
        <ele>1117.189453</ele>
        <time>2013-11-03T11:59:38Z</time>
      </trkpt>
      <trkpt lat="44.21586" lon="3.50149">
        <ele>1112.863281</ele>
        <time>2013-11-03T11:59:46Z</time>
      </trkpt>
      <trkpt lat="44.21587" lon="3.50148">
        <ele>1113.824463</ele>
        <time>2013-11-03T11:59:47Z</time>
      </trkpt>
      <trkpt lat="44.21599" lon="3.50119">
        <ele>1114.305176</ele>
        <time>2013-11-03T12:00:06Z</time>
      </trkpt>
      <trkpt lat="44.21603" lon="3.50088">
        <ele>1113.824463</ele>
        <time>2013-11-03T12:00:22Z</time>
      </trkpt>
      <trkpt lat="44.21603" lon="3.50083">
        <ele>1114.785889</ele>
        <time>2013-11-03T12:00:25Z</time>
      </trkpt>
      <trkpt lat="44.21602" lon="3.50076">
        <ele>1115.747314</ele>
        <time>2013-11-03T12:00:29Z</time>
      </trkpt>
      <trkpt lat="44.21603" lon="3.5007">
        <ele>1117.669922</ele>
        <time>2013-11-03T12:00:33Z</time>
      </trkpt>
      <trkpt lat="44.21604" lon="3.50061">
        <ele>1118.150635</ele>
        <time>2013-11-03T12:00:38Z</time>
      </trkpt>
      <trkpt lat="44.21604" lon="3.50054">
        <ele>1119.112061</ele>
        <time>2013-11-03T12:00:51Z</time>
      </trkpt>
      <trkpt lat="44.21602" lon="3.50034">
        <ele>1118.631348</ele>
        <time>2013-11-03T12:01:02Z</time>
      </trkpt>
      <trkpt lat="44.216" lon="3.50024">
        <ele>1117.189453</ele>
        <time>2013-11-03T12:01:09Z</time>
      </trkpt>
      <trkpt lat="44.216" lon="3.50022">
        <ele>1118.631348</ele>
        <time>2013-11-03T12:01:11Z</time>
      </trkpt>
      <trkpt lat="44.21599" lon="3.50006">
        <ele>1119.592773</ele>
        <time>2013-11-03T12:01:22Z</time>
      </trkpt>
      <trkpt lat="44.21598" lon="3.49997">
        <ele>1119.112061</ele>
        <time>2013-11-03T12:01:27Z</time>
      </trkpt>
      <trkpt lat="44.216" lon="3.4999">
        <ele>1118.631348</ele>
        <time>2013-11-03T12:01:31Z</time>
      </trkpt>
      <trkpt lat="44.21603" lon="3.49975">
        <ele>1116.70874</ele>
        <time>2013-11-03T12:01:40Z</time>
      </trkpt>
      <trkpt lat="44.21603" lon="3.49967">
        <ele>1116.70874</ele>
        <time>2013-11-03T12:01:45Z</time>
      </trkpt>
      <trkpt lat="44.21602" lon="3.49952">
        <ele>1115.747314</ele>
        <time>2013-11-03T12:01:55Z</time>
      </trkpt>
      <trkpt lat="44.21601" lon="3.49946">
        <ele>1113.343994</ele>
        <time>2013-11-03T12:01:58Z</time>
      </trkpt>
      <trkpt lat="44.21601" lon="3.49937">
        <ele>1115.747314</ele>
        <time>2013-11-03T12:02:03Z</time>
      </trkpt>
      <trkpt lat="44.21602" lon="3.49912">
        <ele>1116.70874</ele>
        <time>2013-11-03T12:02:16Z</time>
      </trkpt>
      <trkpt lat="44.21602" lon="3.49906">
        <ele>1115.266602</ele>
        <time>2013-11-03T12:02:19Z</time>
      </trkpt>
      <trkpt lat="44.21603" lon="3.49893">
        <ele>1114.305176</ele>
        <time>2013-11-03T12:02:26Z</time>
      </trkpt>
      <trkpt lat="44.21604" lon="3.49888">
        <ele>1115.266602</ele>
        <time>2013-11-03T12:02:29Z</time>
      </trkpt>
      <trkpt lat="44.21604" lon="3.49883">
        <ele>1110.459961</ele>
        <time>2013-11-03T12:02:32Z</time>
      </trkpt>
      <trkpt lat="44.21604" lon="3.49879">
        <ele>1111.9021</ele>
        <time>2013-11-03T12:02:34Z</time>
      </trkpt>
      <trkpt lat="44.21605" lon="3.49873">
        <ele>1116.70874</ele>
        <time>2013-11-03T12:02:38Z</time>
      </trkpt>
      <trkpt lat="44.21605" lon="3.49871">
        <ele>1115.747314</ele>
        <time>2013-11-03T12:02:39Z</time>
      </trkpt>
      <trkpt lat="44.21608" lon="3.49863">
        <ele>1114.785889</ele>
        <time>2013-11-03T12:02:44Z</time>
      </trkpt>
      <trkpt lat="44.21616" lon="3.49836">
        <ele>1114.305176</ele>
        <time>2013-11-03T12:03:00Z</time>
      </trkpt>
      <trkpt lat="44.21623" lon="3.49813">
        <ele>1114.785889</ele>
        <time>2013-11-03T12:03:14Z</time>
      </trkpt>
      <trkpt lat="44.21624" lon="3.49812">
        <ele>1113.343994</ele>
        <time>2013-11-03T12:03:15Z</time>
      </trkpt>
      <trkpt lat="44.21625" lon="3.49812">
        <ele>1115.266602</ele>
        <time>2013-11-03T12:03:17Z</time>
      </trkpt>
      <trkpt lat="44.21627" lon="3.49809">
        <ele>1116.228027</ele>
        <time>2013-11-03T12:03:19Z</time>
      </trkpt>
      <trkpt lat="44.2164" lon="3.49798">
        <ele>1116.70874</ele>
        <time>2013-11-03T12:03:32Z</time>
      </trkpt>
      <trkpt lat="44.21655" lon="3.49786">
        <ele>1115.266602</ele>
        <time>2013-11-03T12:03:46Z</time>
      </trkpt>
      <trkpt lat="44.21666" lon="3.49776">
        <ele>1114.785889</ele>
        <time>2013-11-03T12:03:57Z</time>
      </trkpt>
      <trkpt lat="44.2168" lon="3.49764">
        <ele>1114.785889</ele>
        <time>2013-11-03T12:04:10Z</time>
      </trkpt>
      <trkpt lat="44.21694" lon="3.49749">
        <ele>1116.70874</ele>
        <time>2013-11-03T12:04:23Z</time>
      </trkpt>
      <trkpt lat="44.21708" lon="3.49738">
        <ele>1113.824463</ele>
        <time>2013-11-03T12:04:36Z</time>
      </trkpt>
      <trkpt lat="44.21715" lon="3.4973">
        <ele>1112.863281</ele>
        <time>2013-11-03T12:04:46Z</time>
      </trkpt>
      <trkpt lat="44.21718" lon="3.49728">
        <ele>1111.421387</ele>
        <time>2013-11-03T12:04:48Z</time>
      </trkpt>
      <trkpt lat="44.21721" lon="3.49727">
        <ele>1113.824463</ele>
        <time>2013-11-03T12:04:50Z</time>
      </trkpt>
      <trkpt lat="44.21723" lon="3.49725">
        <ele>1110.459961</ele>
        <time>2013-11-03T12:04:52Z</time>
      </trkpt>
      <trkpt lat="44.21736" lon="3.49705">
        <ele>1109.018066</ele>
        <time>2013-11-03T12:05:06Z</time>
      </trkpt>
      <trkpt lat="44.21737" lon="3.49704">
        <ele>1107.576172</ele>
        <time>2013-11-03T12:05:07Z</time>
      </trkpt>
      <trkpt lat="44.21745" lon="3.49698">
        <ele>1104.21167</ele>
        <time>2013-11-03T12:05:14Z</time>
      </trkpt>
      <trkpt lat="44.21753" lon="3.4969">
        <ele>1102.769531</ele>
        <time>2013-11-03T12:05:21Z</time>
      </trkpt>
      <trkpt lat="44.21754" lon="3.49689">
        <ele>1104.21167</ele>
        <time>2013-11-03T12:05:22Z</time>
      </trkpt>
      <trkpt lat="44.2177" lon="3.49677">
        <ele>1101.327637</ele>
        <time>2013-11-03T12:05:38Z</time>
      </trkpt>
      <trkpt lat="44.21782" lon="3.4967">
        <ele>1097.962891</ele>
        <time>2013-11-03T12:05:49Z</time>
      </trkpt>
      <trkpt lat="44.21783" lon="3.4967">
        <ele>1098.443359</ele>
        <time>2013-11-03T12:05:50Z</time>
      </trkpt>
      <trkpt lat="44.21789" lon="3.49666">
        <ele>1098.924072</ele>
        <time>2013-11-03T12:05:55Z</time>
      </trkpt>
      <trkpt lat="44.21793" lon="3.49662">
        <ele>1095.078857</ele>
        <time>2013-11-03T12:05:58Z</time>
      </trkpt>
      <trkpt lat="44.21794" lon="3.49661">
        <ele>1095.078857</ele>
        <time>2013-11-03T12:05:59Z</time>
      </trkpt>
      <trkpt lat="44.21805" lon="3.49655">
        <ele>1096.520996</ele>
        <time>2013-11-03T12:06:09Z</time>
      </trkpt>
      <trkpt lat="44.21807" lon="3.49654">
        <ele>1097.001465</ele>
        <time>2013-11-03T12:06:14Z</time>
      </trkpt>
      <trkpt lat="44.21813" lon="3.49651">
        <ele>1095.078857</ele>
        <time>2013-11-03T12:06:20Z</time>
      </trkpt>
      <trkpt lat="44.21828" lon="3.49639">
        <ele>1095.078857</ele>
        <time>2013-11-03T12:06:33Z</time>
      </trkpt>
      <trkpt lat="44.21838" lon="3.49631">
        <ele>1094.598145</ele>
        <time>2013-11-03T12:06:42Z</time>
      </trkpt>
      <trkpt lat="44.21852" lon="3.49626">
        <ele>1094.117676</ele>
        <time>2013-11-03T12:06:53Z</time>
      </trkpt>
      <trkpt lat="44.21866" lon="3.49618">
        <ele>1091.714355</ele>
        <time>2013-11-03T12:07:05Z</time>
      </trkpt>
      <trkpt lat="44.21868" lon="3.49617">
        <ele>1092.675781</ele>
        <time>2013-11-03T12:07:06Z</time>
      </trkpt>
      <trkpt lat="44.21873" lon="3.49613">
        <ele>1092.195068</ele>
        <time>2013-11-03T12:07:11Z</time>
      </trkpt>
      <trkpt lat="44.21884" lon="3.49597">
        <ele>1089.791748</ele>
        <time>2013-11-03T12:07:23Z</time>
      </trkpt>
      <trkpt lat="44.21897" lon="3.49588">
        <ele>1088.349854</ele>
        <time>2013-11-03T12:07:36Z</time>
      </trkpt>
      <trkpt lat="44.21901" lon="3.49585">
        <ele>1089.311035</ele>
        <time>2013-11-03T12:07:39Z</time>
      </trkpt>
      <trkpt lat="44.21902" lon="3.49585">
        <ele>1089.311035</ele>
        <time>2013-11-03T12:07:41Z</time>
      </trkpt>
      <trkpt lat="44.21906" lon="3.49584">
        <ele>1087.388428</ele>
        <time>2013-11-03T12:07:44Z</time>
      </trkpt>
      <trkpt lat="44.21911" lon="3.49583">
        <ele>1087.388428</ele>
        <time>2013-11-03T12:07:48Z</time>
      </trkpt>
      <trkpt lat="44.21914" lon="3.49581">
        <ele>1087.869141</ele>
        <time>2013-11-03T12:07:50Z</time>
      </trkpt>
      <trkpt lat="44.21934" lon="3.49572">
        <ele>1087.388428</ele>
        <time>2013-11-03T12:08:05Z</time>
      </trkpt>
      <trkpt lat="44.21952" lon="3.49565">
        <ele>1087.869141</ele>
        <time>2013-11-03T12:08:19Z</time>
      </trkpt>
      <trkpt lat="44.21954" lon="3.49565">
        <ele>1088.830566</ele>
        <time>2013-11-03T12:08:21Z</time>
      </trkpt>
      <trkpt lat="44.21958" lon="3.49564">
        <ele>1089.791748</ele>
        <time>2013-11-03T12:08:24Z</time>
      </trkpt>
      <trkpt lat="44.21964" lon="3.49565">
        <ele>1090.75293</ele>
        <time>2013-11-03T12:08:29Z</time>
      </trkpt>
      <trkpt lat="44.21972" lon="3.49562">
        <ele>1091.714355</ele>
        <time>2013-11-03T12:08:36Z</time>
      </trkpt>
      <trkpt lat="44.21983" lon="3.4956">
        <ele>1093.15625</ele>
        <time>2013-11-03T12:08:47Z</time>
      </trkpt>
      <trkpt lat="44.2199" lon="3.49558">
        <ele>1094.117676</ele>
        <time>2013-11-03T12:08:54Z</time>
      </trkpt>
      <trkpt lat="44.22002" lon="3.49554">
        <ele>1095.078857</ele>
        <time>2013-11-03T12:09:04Z</time>
      </trkpt>
      <trkpt lat="44.22004" lon="3.49555">
        <ele>1094.598145</ele>
        <time>2013-11-03T12:09:07Z</time>
      </trkpt>
      <trkpt lat="44.22017" lon="3.49551">
        <ele>1098.443359</ele>
        <time>2013-11-03T12:09:18Z</time>
      </trkpt>
      <trkpt lat="44.22018" lon="3.4955">
        <ele>1097.962891</ele>
        <time>2013-11-03T12:09:19Z</time>
      </trkpt>
      <trkpt lat="44.22032" lon="3.49538">
        <ele>1099.404785</ele>
        <time>2013-11-03T12:09:35Z</time>
      </trkpt>
      <trkpt lat="44.22038" lon="3.4953">
        <ele>1102.769531</ele>
        <time>2013-11-03T12:09:45Z</time>
      </trkpt>
      <trkpt lat="44.22046" lon="3.49516">
        <ele>1106.614746</ele>
        <time>2013-11-03T12:09:58Z</time>
      </trkpt>
      <trkpt lat="44.22047" lon="3.49515">
        <ele>1107.095459</ele>
        <time>2013-11-03T12:10:00Z</time>
      </trkpt>
      <trkpt lat="44.22053" lon="3.49506">
        <ele>1109.018066</ele>
        <time>2013-11-03T12:10:11Z</time>
      </trkpt>
      <trkpt lat="44.22055" lon="3.49504">
        <ele>1110.459961</ele>
        <time>2013-11-03T12:10:16Z</time>
      </trkpt>
      <trkpt lat="44.22056" lon="3.49504">
        <ele>1110.459961</ele>
        <time>2013-11-03T12:10:17Z</time>
      </trkpt>
      <trkpt lat="44.22064" lon="3.49506">
        <ele>1109.498779</ele>
        <time>2013-11-03T12:10:24Z</time>
      </trkpt>
      <trkpt lat="44.22068" lon="3.4951">
        <ele>1109.979248</ele>
        <time>2013-11-03T12:10:28Z</time>
      </trkpt>
      <trkpt lat="44.22079" lon="3.49517">
        <ele>1106.614746</ele>
        <time>2013-11-03T12:10:40Z</time>
      </trkpt>
      <trkpt lat="44.22079" lon="3.49518">
        <ele>1112.863281</ele>
        <time>2013-11-03T12:10:41Z</time>
      </trkpt>
      <trkpt lat="44.2208" lon="3.49519">
        <ele>1110.940674</ele>
        <time>2013-11-03T12:10:42Z</time>
      </trkpt>
      <trkpt lat="44.22082" lon="3.4952">
        <ele>1110.459961</ele>
        <time>2013-11-03T12:10:44Z</time>
      </trkpt>
      <trkpt lat="44.22099" lon="3.49532">
        <ele>1109.498779</ele>
        <time>2013-11-03T12:11:04Z</time>
      </trkpt>
      <trkpt lat="44.22114" lon="3.49539">
        <ele>1108.537354</ele>
        <time>2013-11-03T12:11:20Z</time>
      </trkpt>
      <trkpt lat="44.22131" lon="3.49547">
        <ele>1109.018066</ele>
        <time>2013-11-03T12:11:38Z</time>
      </trkpt>
      <trkpt lat="44.22148" lon="3.49561">
        <ele>1110.940674</ele>
        <time>2013-11-03T12:11:58Z</time>
      </trkpt>
      <trkpt lat="44.22163" lon="3.49565">
        <ele>1114.305176</ele>
        <time>2013-11-03T12:12:12Z</time>
      </trkpt>
      <trkpt lat="44.22169" lon="3.49568">
        <ele>1115.747314</ele>
        <time>2013-11-03T12:12:29Z</time>
      </trkpt>
      <trkpt lat="44.22169" lon="3.49569">
        <ele>1114.305176</ele>
        <time>2013-11-03T12:12:38Z</time>
      </trkpt>
    </trkseg>
  </trk>
</gpx>